LOT32 KIAD-EPWA
Flight info
| Callsign | LOT32 |
|---|---|
| Flight time | 7h 52m |
| Altitude | 37000 |
| Route | JCOBY4 SWANN DCT BROSS Q419 RBV Q22 FOXWD DCT TUSKY/N0500F390 N265B NICSO/M085F400 NATS BEXET/N0489F410 DCT LIFFY UL975 WAL M16 DOLAS L603 LAMSO DCT AMSAN DCT ROBEG DCT HLZ DCT SUBIX DCT KELOD DCT ADVAB P150 BIMPA |
| Aircraft | B788/H-SDE1E2E3FGHIJ2J3J4J5M1RWXY/LB1D1 |
Departure
| Time | 2026-05-04 23:11 |
|---|---|
| Airport | Washington Dulles International Airport (KIAD) |
Arrival
| Time | 2026-05-05 07:03 |
|---|---|
| Airport | Warsaw Chopin Airport (EPWA) |
| Time | Latitude | Longitude | Altitude | Speed | Heading |
|---|---|---|---|---|---|
| 2026-05-04 22:52 | 38.94818 | -77.45018 | 299 ft | 0 kts | 5° |
| 2026-05-04 23:01 | 38.94814 | -77.45019 | 299 ft | 2 kts | 5° |
| 2026-05-04 23:01 | 38.94799 | -77.45019 | 299 ft | 2 kts | 3° |
| 2026-05-04 23:01 | 38.94785 | -77.45020 | 299 ft | 2 kts | 1° |
| 2026-05-04 23:01 | 38.94769 | -77.45021 | 299 ft | 2 kts | 0° |
| 2026-05-04 23:02 | 38.94754 | -77.45020 | 299 ft | 2 kts | 360° |
| 2026-05-04 23:02 | 38.94744 | -77.45020 | 299 ft | 0 kts | 0° |
| 2026-05-04 23:03 | 38.94745 | -77.45020 | 299 ft | 0 kts | 0° |
| 2026-05-04 23:04 | 38.94750 | -77.45002 | 299 ft | 4 kts | 100° |
| 2026-05-04 23:04 | 38.94738 | -77.44952 | 299 ft | 8 kts | 107° |
| 2026-05-04 23:04 | 38.94730 | -77.44846 | 299 ft | 16 kts | 91° |
| 2026-05-04 23:04 | 38.94727 | -77.44643 | 301 ft | 28 kts | 92° |
| 2026-05-04 23:05 | 38.94721 | -77.44346 | 301 ft | 29 kts | 91° |
| 2026-05-04 23:05 | 38.94717 | -77.44123 | 303 ft | 15 kts | 92° |
| 2026-05-04 23:05 | 38.94715 | -77.44020 | 305 ft | 0 kts | 88° |
| 2026-05-04 23:06 | 38.94716 | -77.44051 | 305 ft | 9 kts | 95° |
| 2026-05-04 23:06 | 38.94717 | -77.44063 | 305 ft | 0 kts | 92° |
| 2026-05-04 23:07 | 38.94717 | -77.44062 | 305 ft | 1 kts | 92° |
| 2026-05-04 23:07 | 38.94721 | -77.44007 | 305 ft | 11 kts | 67° |
| 2026-05-04 23:07 | 38.94808 | -77.43970 | 303 ft | 14 kts | 1° |
| 2026-05-04 23:08 | 38.94906 | -77.43968 | 303 ft | 13 kts | 1° |
| 2026-05-04 23:08 | 38.95001 | -77.43966 | 302 ft | 13 kts | 1° |
| 2026-05-04 23:08 | 38.95099 | -77.43964 | 301 ft | 14 kts | 0° |
| 2026-05-04 23:08 | 38.95198 | -77.43964 | 300 ft | 14 kts | 0° |
| 2026-05-04 23:09 | 38.95294 | -77.43965 | 300 ft | 13 kts | 0° |
| 2026-05-04 23:09 | 38.95387 | -77.43964 | 299 ft | 13 kts | 1° |
| 2026-05-04 23:09 | 38.95468 | -77.43954 | 299 ft | 11 kts | 32° |
| 2026-05-04 23:09 | 38.95486 | -77.43855 | 299 ft | 10 kts | 90° |
| 2026-05-04 23:10 | 38.95486 | -77.43767 | 300 ft | 8 kts | 90° |
| 2026-05-04 23:10 | 38.95486 | -77.43700 | 302 ft | 8 kts | 90° |
| 2026-05-04 23:10 | 38.95469 | -77.43610 | 302 ft | 13 kts | 145° |
| 2026-05-04 23:10 | 38.95188 | -77.43603 | 301 ft | 77 kts | 180° |
| 2026-05-04 23:11 | 38.94406 | -77.43612 | 311 ft | 145 kts | 181° |
| 2026-05-04 23:11 | 38.93209 | -77.43627 | 453 ft | 191 kts | 181° |
| 2026-05-04 23:11 | 38.91819 | -77.43649 | 982 ft | 208 kts | 181° |
| 2026-05-04 23:11 | 38.90505 | -77.43957 | 2174 ft | 188 kts | 211° |
| 2026-05-04 23:12 | 38.89618 | -77.45113 | 2958 ft | 193 kts | 235° |
| 2026-05-04 23:12 | 38.89140 | -77.46874 | 3150 ft | 230 kts | 259° |
| 2026-05-04 23:12 | 38.89294 | -77.49091 | 3310 ft | 265 kts | 285° |
| 2026-05-04 23:12 | 38.90152 | -77.51023 | 4645 ft | 254 kts | 306° |
| 2026-05-04 23:13 | 38.91559 | -77.52475 | 5488 ft | 269 kts | 330° |
| 2026-05-04 23:13 | 38.93364 | -77.53167 | 6463 ft | 278 kts | 352° |
| 2026-05-04 23:13 | 38.95311 | -77.52999 | 7325 ft | 289 kts | 13° |
| 2026-05-04 23:13 | 38.97145 | -77.51952 | 8211 ft | 295 kts | 34° |
| 2026-05-04 23:14 | 38.98632 | -77.50134 | 9080 ft | 299 kts | 55° |
| 2026-05-04 23:14 | 38.99736 | -77.47827 | 9908 ft | 304 kts | 59° |
| 2026-05-04 23:14 | 39.01062 | -77.45557 | 10018 ft | 338 kts | 47° |
| 2026-05-04 23:14 | 39.02839 | -77.43341 | 10058 ft | 372 kts | 41° |
| 2026-05-04 23:15 | 39.04889 | -77.41170 | 10034 ft | 384 kts | 38° |
| 2026-05-04 23:15 | 39.06963 | -77.39127 | 10000 ft | 365 kts | 36° |
| 2026-05-04 23:15 | 39.08996 | -77.37183 | 10013 ft | 358 kts | 36° |
| 2026-05-04 23:15 | 39.10982 | -77.35287 | 10026 ft | 364 kts | 38° |
| 2026-05-04 23:16 | 39.12678 | -77.32854 | 10810 ft | 370 kts | 58° |
| 2026-05-04 23:16 | 39.13734 | -77.30029 | 11571 ft | 375 kts | 73° |
| 2026-05-04 23:16 | 39.14287 | -77.26845 | 12302 ft | 380 kts | 85° |
| 2026-05-04 23:16 | 39.14324 | -77.23423 | 13084 ft | 383 kts | 98° |
| 2026-05-04 23:17 | 39.13973 | -77.19994 | 13886 ft | 386 kts | 103° |
| 2026-05-04 23:17 | 39.13494 | -77.16607 | 14427 ft | 398 kts | 104° |
| 2026-05-04 23:17 | 39.12936 | -77.12954 | 14466 ft | 424 kts | 104° |
| 2026-05-04 23:17 | 39.12343 | -77.09167 | 15123 ft | 432 kts | 105° |
| 2026-05-04 23:18 | 39.11743 | -77.05370 | 15953 ft | 436 kts | 105° |
| 2026-05-04 23:18 | 39.11142 | -77.01527 | 16723 ft | 441 kts | 104° |
| 2026-05-04 23:18 | 39.10889 | -76.97526 | 17434 ft | 451 kts | 94° |
| 2026-05-04 23:18 | 39.10886 | -76.93474 | 18137 ft | 456 kts | 93° |
| 2026-05-04 23:19 | 39.10970 | -76.89333 | 18827 ft | 462 kts | 92° |
| 2026-05-04 23:19 | 39.11066 | -76.85194 | 19494 ft | 467 kts | 92° |
| 2026-05-04 23:19 | 39.11175 | -76.81002 | 20152 ft | 471 kts | 92° |
| 2026-05-04 23:19 | 39.11280 | -76.76807 | 20799 ft | 475 kts | 93° |
| 2026-05-04 23:20 | 39.11385 | -76.72475 | 21431 ft | 480 kts | 93° |
| 2026-05-04 23:20 | 39.11489 | -76.68163 | 22052 ft | 484 kts | 93° |
| 2026-05-04 23:20 | 39.11591 | -76.63780 | 22638 ft | 488 kts | 93° |
| 2026-05-04 23:20 | 39.11692 | -76.59423 | 23233 ft | 492 kts | 93° |
| 2026-05-04 23:21 | 39.11796 | -76.54981 | 23810 ft | 496 kts | 93° |
| 2026-05-04 23:21 | 39.12154 | -76.50500 | 24385 ft | 505 kts | 86° |
| 2026-05-04 23:21 | 39.12608 | -76.46040 | 24962 ft | 508 kts | 87° |
| 2026-05-04 23:21 | 39.13104 | -76.41539 | 25671 ft | 508 kts | 87° |
| 2026-05-04 23:22 | 39.13604 | -76.36998 | 26452 ft | 506 kts | 87° |
| 2026-05-04 23:22 | 39.14104 | -76.32492 | 27180 ft | 504 kts | 88° |
| 2026-05-04 23:22 | 39.14603 | -76.28027 | 27885 ft | 502 kts | 88° |
| 2026-05-04 23:22 | 39.15094 | -76.23618 | 28490 ft | 501 kts | 88° |
| 2026-05-04 23:23 | 39.15600 | -76.19196 | 29084 ft | 501 kts | 88° |
| 2026-05-04 23:23 | 39.16114 | -76.14729 | 29727 ft | 499 kts | 89° |
| 2026-05-04 23:23 | 39.16619 | -76.10311 | 30294 ft | 498 kts | 89° |
| 2026-05-04 23:23 | 39.17130 | -76.05844 | 30875 ft | 496 kts | 89° |
| 2026-05-04 23:24 | 39.17633 | -76.01412 | 31375 ft | 496 kts | 89° |
| 2026-05-04 23:24 | 39.18133 | -75.97061 | 31856 ft | 497 kts | 88° |
| 2026-05-04 23:24 | 39.19088 | -75.92709 | 32334 ft | 509 kts | 73° |
| 2026-05-04 23:24 | 39.20755 | -75.88667 | 32740 ft | 520 kts | 60° |
| 2026-05-04 23:25 | 39.23016 | -75.85055 | 33136 ft | 527 kts | 51° |
| 2026-05-04 23:25 | 39.25569 | -75.81720 | 33558 ft | 528 kts | 47° |
| 2026-05-04 23:25 | 39.28243 | -75.78497 | 33949 ft | 529 kts | 45° |
| 2026-05-04 23:25 | 39.31033 | -75.75273 | 34070 ft | 537 kts | 44° |
| 2026-05-04 23:26 | 39.36768 | -75.68844 | 34109 ft | 556 kts | 43° |
| 2026-05-04 23:26 | 39.42740 | -75.62235 | 34288 ft | 571 kts | 43° |
| 2026-05-04 23:27 | 39.45765 | -75.58901 | 34683 ft | 572 kts | 43° |
| 2026-05-04 23:27 | 39.47823 | -75.56634 | 35039 ft | 571 kts | 43° |
| 2026-05-04 23:27 | 39.51854 | -75.52188 | 35707 ft | 568 kts | 43° |
| 2026-05-04 23:27 | 39.53713 | -75.50136 | 35986 ft | 567 kts | 42° |
| 2026-05-04 23:28 | 39.56692 | -75.46841 | 36486 ft | 564 kts | 43° |
| 2026-05-04 23:28 | 39.58686 | -75.44637 | 36828 ft | 562 kts | 43° |
| 2026-05-04 23:28 | 39.62596 | -75.40311 | 36998 ft | 557 kts | 43° |
| 2026-05-04 23:28 | 39.65540 | -75.37045 | 37029 ft | 557 kts | 43° |
| 2026-05-04 23:29 | 39.68516 | -75.33736 | 36910 ft | 559 kts | 43° |
| 2026-05-04 23:29 | 39.70473 | -75.31564 | 36916 ft | 558 kts | 43° |
| 2026-05-04 23:29 | 39.77334 | -75.23905 | 36910 ft | 558 kts | 45° |
| 2026-05-04 23:30 | 39.81733 | -75.17881 | 36917 ft | 555 kts | 52° |
| 2026-05-04 23:30 | 39.87698 | -75.09158 | 36917 ft | 553 kts | 52° |
| 2026-05-04 23:31 | 39.92765 | -75.01636 | 36922 ft | 551 kts | 52° |
| 2026-05-04 23:31 | 39.97519 | -74.93973 | 36929 ft | 542 kts | 60° |
| 2026-05-04 23:32 | 40.01759 | -74.85884 | 36927 ft | 539 kts | 60° |
| 2026-05-04 23:32 | 40.05937 | -74.77750 | 36920 ft | 539 kts | 61° |
| 2026-05-04 23:33 | 40.10077 | -74.69617 | 36915 ft | 539 kts | 61° |
| 2026-05-04 23:33 | 40.14220 | -74.61448 | 36892 ft | 539 kts | 61° |
| 2026-05-04 23:34 | 40.18358 | -74.53313 | 36901 ft | 541 kts | 58° |
| 2026-05-04 23:34 | 40.20904 | -74.49560 | 36930 ft | 547 kts | 46° |
| 2026-05-04 23:34 | 40.23700 | -74.46224 | 36918 ft | 549 kts | 44° |
| 2026-05-04 23:35 | 40.29536 | -74.39718 | 36925 ft | 550 kts | 42° |
| 2026-05-04 23:35 | 40.35434 | -74.33327 | 36919 ft | 550 kts | 42° |
| 2026-05-04 23:36 | 40.41316 | -74.26991 | 36905 ft | 550 kts | 42° |
| 2026-05-04 23:36 | 40.47202 | -74.20653 | 36894 ft | 550 kts | 42° |
| 2026-05-04 23:37 | 40.53060 | -74.14336 | 36885 ft | 550 kts | 42° |
| 2026-05-04 23:37 | 40.58952 | -74.07973 | 36886 ft | 550 kts | 42° |
| 2026-05-04 23:38 | 40.64784 | -74.01657 | 36888 ft | 549 kts | 42° |
| 2026-05-04 23:38 | 40.70687 | -73.95247 | 36893 ft | 550 kts | 42° |
| 2026-05-04 23:39 | 40.76541 | -73.88879 | 36891 ft | 550 kts | 42° |
| 2026-05-04 23:39 | 40.82458 | -73.82424 | 36886 ft | 550 kts | 42° |
| 2026-05-04 23:40 | 40.87581 | -73.75188 | 36904 ft | 542 kts | 56° |
| 2026-05-04 23:40 | 40.92068 | -73.67178 | 36888 ft | 541 kts | 58° |
| 2026-05-04 23:41 | 40.96429 | -73.59078 | 36901 ft | 540 kts | 59° |
| 2026-05-04 23:41 | 41.00756 | -73.50934 | 36909 ft | 543 kts | 59° |
| 2026-05-04 23:42 | 41.05081 | -73.42752 | 36911 ft | 544 kts | 59° |
| 2026-05-04 23:42 | 41.09417 | -73.34518 | 36906 ft | 545 kts | 60° |
| 2026-05-04 23:43 | 41.13748 | -73.26262 | 36879 ft | 545 kts | 60° |
| 2026-05-04 23:43 | 41.18077 | -73.17989 | 36883 ft | 544 kts | 60° |
| 2026-05-04 23:44 | 41.22353 | -73.09804 | 36886 ft | 538 kts | 61° |
| 2026-05-04 23:44 | 41.26579 | -73.01682 | 36891 ft | 532 kts | 61° |
| 2026-05-04 23:45 | 41.30532 | -72.93556 | 36898 ft | 523 kts | 65° |
| 2026-05-04 23:45 | 41.34290 | -72.85228 | 36896 ft | 523 kts | 65° |
| 2026-05-04 23:46 | 41.38028 | -72.76888 | 36892 ft | 524 kts | 65° |
| 2026-05-04 23:46 | 41.41750 | -72.68563 | 36891 ft | 524 kts | 65° |
| 2026-05-04 23:47 | 41.45450 | -72.60261 | 36903 ft | 524 kts | 65° |
| 2026-05-04 23:47 | 41.49160 | -72.51917 | 36917 ft | 523 kts | 65° |
| 2026-05-04 23:48 | 41.52825 | -72.43649 | 36926 ft | 523 kts | 65° |
| 2026-05-04 23:48 | 41.56513 | -72.35304 | 36923 ft | 523 kts | 65° |
| 2026-05-04 23:49 | 41.60207 | -72.26929 | 36914 ft | 523 kts | 66° |
| 2026-05-04 23:49 | 41.63866 | -72.18600 | 36910 ft | 523 kts | 66° |
| 2026-05-04 23:50 | 41.67559 | -72.10176 | 36910 ft | 523 kts | 66° |
| 2026-05-04 23:50 | 41.71239 | -72.01760 | 36912 ft | 523 kts | 66° |
| 2026-05-04 23:51 | 41.74934 | -71.93280 | 36911 ft | 523 kts | 66° |
| 2026-05-04 23:51 | 41.78596 | -71.84856 | 36905 ft | 522 kts | 66° |
| 2026-05-04 23:52 | 41.82108 | -71.76405 | 36899 ft | 521 kts | 68° |
| 2026-05-04 23:52 | 41.85522 | -71.67836 | 36900 ft | 521 kts | 68° |
| 2026-05-04 23:53 | 41.88927 | -71.59242 | 36900 ft | 520 kts | 68° |
| 2026-05-04 23:53 | 41.92320 | -71.50642 | 36899 ft | 520 kts | 68° |
| 2026-05-04 23:54 | 41.95689 | -71.42080 | 36898 ft | 521 kts | 68° |
| 2026-05-04 23:54 | 41.99079 | -71.33437 | 36893 ft | 520 kts | 69° |
| 2026-05-04 23:55 | 42.02458 | -71.24803 | 36882 ft | 519 kts | 69° |
| 2026-05-04 23:56 | 42.07494 | -71.11880 | 36875 ft | 519 kts | 69° |
| 2026-05-04 23:56 | 42.10827 | -71.03288 | 36858 ft | 520 kts | 69° |
| 2026-05-04 23:57 | 42.14165 | -70.94672 | 36859 ft | 515 kts | 69° |
| 2026-05-04 23:57 | 42.17485 | -70.86074 | 36874 ft | 511 kts | 69° |
| 2026-05-04 23:58 | 42.20761 | -70.77558 | 36892 ft | 506 kts | 69° |
| 2026-05-04 23:58 | 42.23980 | -70.69168 | 36894 ft | 506 kts | 69° |
| 2026-05-04 23:59 | 42.27220 | -70.60689 | 36893 ft | 507 kts | 69° |
| 2026-05-04 23:59 | 42.30466 | -70.52180 | 36897 ft | 507 kts | 69° |
| 2026-05-05 00:00 | 42.33667 | -70.43765 | 36898 ft | 507 kts | 69° |
| 2026-05-05 00:00 | 42.36890 | -70.35262 | 36905 ft | 507 kts | 69° |
| 2026-05-05 00:01 | 42.40102 | -70.26766 | 36906 ft | 506 kts | 70° |
| 2026-05-05 00:01 | 42.43304 | -70.18265 | 36907 ft | 506 kts | 70° |
| 2026-05-05 00:02 | 42.46500 | -70.09766 | 36907 ft | 506 kts | 70° |
| 2026-05-05 00:02 | 42.49726 | -70.01150 | 36906 ft | 506 kts | 70° |
| 2026-05-05 00:03 | 42.52889 | -69.92683 | 36908 ft | 506 kts | 70° |
| 2026-05-05 00:03 | 42.56086 | -69.84101 | 36907 ft | 505 kts | 70° |
| 2026-05-05 00:04 | 42.59257 | -69.75557 | 36908 ft | 506 kts | 70° |
| 2026-05-05 00:04 | 42.62426 | -69.66992 | 36909 ft | 506 kts | 70° |
| 2026-05-05 00:05 | 42.65587 | -69.58432 | 36911 ft | 505 kts | 70° |
| 2026-05-05 00:05 | 42.68726 | -69.49895 | 36911 ft | 506 kts | 70° |
| 2026-05-05 00:06 | 42.71863 | -69.41344 | 36909 ft | 505 kts | 70° |
| 2026-05-05 00:06 | 42.75017 | -69.32724 | 36898 ft | 504 kts | 70° |
| 2026-05-05 00:07 | 42.78157 | -69.24103 | 36880 ft | 505 kts | 70° |
| 2026-05-05 00:07 | 42.81255 | -69.15582 | 36861 ft | 505 kts | 70° |
| 2026-05-05 00:08 | 42.84394 | -69.06911 | 36837 ft | 506 kts | 70° |
| 2026-05-05 00:08 | 42.87528 | -68.98206 | 36817 ft | 510 kts | 69° |
| 2026-05-05 00:09 | 42.90642 | -68.89552 | 36813 ft | 512 kts | 69° |
| 2026-05-05 00:09 | 42.93793 | -68.80793 | 36813 ft | 513 kts | 69° |
| 2026-05-05 00:10 | 42.96910 | -68.72097 | 36814 ft | 512 kts | 69° |
| 2026-05-05 00:10 | 43.00025 | -68.63373 | 36817 ft | 513 kts | 69° |
| 2026-05-05 00:11 | 43.03148 | -68.54591 | 36816 ft | 513 kts | 69° |
| 2026-05-05 00:11 | 43.06257 | -68.45816 | 36826 ft | 513 kts | 69° |
| 2026-05-05 00:12 | 43.09370 | -68.37001 | 36845 ft | 514 kts | 69° |
| 2026-05-05 00:12 | 43.12484 | -68.28168 | 36832 ft | 512 kts | 69° |
| 2026-05-05 00:13 | 43.15583 | -68.19339 | 36832 ft | 513 kts | 70° |
| 2026-05-05 00:13 | 43.18693 | -68.10452 | 36831 ft | 513 kts | 69° |
| 2026-05-05 00:14 | 43.21767 | -68.01639 | 36829 ft | 513 kts | 70° |
| 2026-05-05 00:14 | 43.24843 | -67.92792 | 36831 ft | 514 kts | 69° |
| 2026-05-05 00:15 | 43.27903 | -67.83965 | 36831 ft | 514 kts | 69° |
| 2026-05-05 00:15 | 43.30982 | -67.75056 | 36831 ft | 513 kts | 70° |
| 2026-05-05 00:16 | 43.34036 | -67.66183 | 36831 ft | 513 kts | 69° |
| 2026-05-05 00:16 | 43.37076 | -67.57329 | 36850 ft | 514 kts | 70° |
| 2026-05-05 00:17 | 43.40153 | -67.48332 | 37084 ft | 516 kts | 69° |
| 2026-05-05 00:17 | 43.41676 | -67.43870 | 37421 ft | 515 kts | 69° |
| 2026-05-05 00:17 | 43.43195 | -67.39414 | 37732 ft | 514 kts | 70° |
| 2026-05-05 00:17 | 43.44721 | -67.34927 | 38008 ft | 514 kts | 70° |
| 2026-05-05 00:18 | 43.46235 | -67.30469 | 38263 ft | 514 kts | 70° |
| 2026-05-05 00:18 | 43.47750 | -67.26000 | 38533 ft | 514 kts | 70° |
| 2026-05-05 00:18 | 43.49276 | -67.21491 | 38756 ft | 514 kts | 70° |
| 2026-05-05 00:18 | 43.50782 | -67.17033 | 38879 ft | 512 kts | 70° |
| 2026-05-05 00:19 | 43.52284 | -67.12569 | 38883 ft | 511 kts | 70° |
| 2026-05-05 00:19 | 43.55267 | -67.03688 | 38891 ft | 510 kts | 69° |
| 2026-05-05 00:20 | 43.58294 | -66.94903 | 38890 ft | 508 kts | 68° |
| 2026-05-05 00:20 | 43.61368 | -66.86097 | 38891 ft | 508 kts | 68° |
| 2026-05-05 00:21 | 43.64417 | -66.77332 | 38892 ft | 508 kts | 68° |
| 2026-05-05 00:21 | 43.67475 | -66.68512 | 38892 ft | 508 kts | 68° |
| 2026-05-05 00:22 | 43.70510 | -66.59729 | 38893 ft | 508 kts | 68° |
| 2026-05-05 00:22 | 43.73554 | -66.50893 | 38893 ft | 508 kts | 68° |
| 2026-05-05 00:23 | 43.76577 | -66.42088 | 38893 ft | 508 kts | 68° |
| 2026-05-05 00:23 | 43.79607 | -66.33232 | 38893 ft | 508 kts | 69° |
| 2026-05-05 00:24 | 43.82614 | -66.24419 | 38892 ft | 508 kts | 69° |
| 2026-05-05 00:24 | 43.85606 | -66.15615 | 38893 ft | 508 kts | 69° |
| 2026-05-05 00:25 | 43.88595 | -66.06795 | 38894 ft | 508 kts | 69° |
| 2026-05-05 00:25 | 43.91596 | -65.97911 | 38894 ft | 508 kts | 69° |
| 2026-05-05 00:26 | 43.94573 | -65.89066 | 38895 ft | 508 kts | 69° |
| 2026-05-05 00:26 | 43.97551 | -65.80190 | 38894 ft | 508 kts | 69° |
| 2026-05-05 00:27 | 44.00528 | -65.71290 | 38895 ft | 508 kts | 68° |
| 2026-05-05 00:27 | 44.03528 | -65.62286 | 38896 ft | 508 kts | 68° |
| 2026-05-05 00:28 | 44.06503 | -65.53332 | 38896 ft | 508 kts | 68° |
| 2026-05-05 00:28 | 44.09446 | -65.44441 | 38897 ft | 508 kts | 69° |
| 2026-05-05 00:29 | 44.12398 | -65.35496 | 38888 ft | 508 kts | 69° |
| 2026-05-05 00:29 | 44.15332 | -65.26576 | 38885 ft | 508 kts | 69° |
| 2026-05-05 00:30 | 44.18243 | -65.17695 | 38857 ft | 508 kts | 69° |
| 2026-05-05 00:30 | 44.21167 | -65.08743 | 38829 ft | 508 kts | 69° |
| 2026-05-05 00:31 | 44.24081 | -64.99783 | 38815 ft | 507 kts | 69° |
| 2026-05-05 00:31 | 44.26971 | -64.90850 | 38814 ft | 502 kts | 68° |
| 2026-05-05 00:32 | 44.29809 | -64.82066 | 38815 ft | 497 kts | 67° |
| 2026-05-05 00:32 | 44.32643 | -64.73288 | 38816 ft | 496 kts | 67° |
| 2026-05-05 00:33 | 44.35477 | -64.64483 | 38816 ft | 496 kts | 67° |
| 2026-05-05 00:33 | 44.38306 | -64.55650 | 38816 ft | 496 kts | 67° |
| 2026-05-05 00:34 | 44.41103 | -64.46886 | 38819 ft | 496 kts | 67° |
| 2026-05-05 00:34 | 44.43903 | -64.38081 | 38821 ft | 496 kts | 67° |
| 2026-05-05 00:35 | 44.46716 | -64.29207 | 38818 ft | 496 kts | 68° |
| 2026-05-05 00:35 | 44.49493 | -64.20415 | 38823 ft | 496 kts | 68° |
| 2026-05-05 00:36 | 44.52279 | -64.11561 | 38829 ft | 496 kts | 68° |
| 2026-05-05 00:36 | 44.55046 | -64.02741 | 38834 ft | 496 kts | 68° |
| 2026-05-05 00:37 | 44.57812 | -63.93892 | 38835 ft | 496 kts | 68° |
| 2026-05-05 00:37 | 44.60587 | -63.84987 | 38834 ft | 496 kts | 68° |
| 2026-05-05 00:38 | 44.63326 | -63.76163 | 38835 ft | 496 kts | 68° |
| 2026-05-05 00:38 | 44.66089 | -63.67232 | 38834 ft | 496 kts | 68° |
| 2026-05-05 00:39 | 44.68825 | -63.58363 | 38829 ft | 496 kts | 68° |
| 2026-05-05 00:39 | 44.71567 | -63.49437 | 38825 ft | 496 kts | 68° |
| 2026-05-05 00:40 | 44.74292 | -63.40539 | 38821 ft | 496 kts | 68° |
| 2026-05-05 00:40 | 44.77007 | -63.31641 | 38814 ft | 496 kts | 69° |
| 2026-05-05 00:41 | 44.79719 | -63.22724 | 38810 ft | 496 kts | 69° |
| 2026-05-05 00:41 | 44.82428 | -63.13784 | 38809 ft | 496 kts | 69° |
| 2026-05-05 00:42 | 44.85129 | -63.04830 | 38809 ft | 498 kts | 68° |
| 2026-05-05 00:42 | 44.87846 | -62.95793 | 38809 ft | 500 kts | 68° |
| 2026-05-05 00:43 | 44.90562 | -62.86732 | 38809 ft | 503 kts | 68° |
| 2026-05-05 00:43 | 44.93288 | -62.77614 | 38809 ft | 502 kts | 68° |
| 2026-05-05 00:44 | 44.95981 | -62.68570 | 38809 ft | 502 kts | 68° |
| 2026-05-05 00:44 | 44.98674 | -62.59490 | 38809 ft | 503 kts | 68° |
| 2026-05-05 00:45 | 45.01381 | -62.50333 | 38812 ft | 504 kts | 68° |
| 2026-05-05 00:45 | 45.04067 | -62.41213 | 38811 ft | 505 kts | 68° |
| 2026-05-05 00:46 | 45.06766 | -62.32012 | 38796 ft | 506 kts | 69° |
| 2026-05-05 00:46 | 45.09461 | -62.22793 | 38775 ft | 506 kts | 69° |
| 2026-05-05 00:47 | 45.12145 | -62.13575 | 38751 ft | 507 kts | 69° |
| 2026-05-05 00:47 | 45.14817 | -62.04362 | 38751 ft | 507 kts | 69° |
| 2026-05-05 00:48 | 45.17475 | -61.95170 | 38751 ft | 506 kts | 69° |
| 2026-05-05 00:48 | 45.20147 | -61.85892 | 38751 ft | 507 kts | 69° |
| 2026-05-05 00:49 | 45.22787 | -61.76688 | 38752 ft | 506 kts | 69° |
| 2026-05-05 00:49 | 45.25460 | -61.67337 | 38752 ft | 507 kts | 69° |
| 2026-05-05 00:50 | 45.28096 | -61.58081 | 38753 ft | 506 kts | 69° |
| 2026-05-05 00:50 | 45.30735 | -61.48778 | 38754 ft | 507 kts | 69° |
| 2026-05-05 00:51 | 45.33365 | -61.39468 | 38753 ft | 506 kts | 69° |
| 2026-05-05 00:51 | 45.35998 | -61.30119 | 38750 ft | 506 kts | 69° |
| 2026-05-05 00:52 | 45.38606 | -61.20819 | 38752 ft | 506 kts | 69° |
| 2026-05-05 00:52 | 45.41205 | -61.11478 | 38752 ft | 508 kts | 69° |
| 2026-05-05 00:53 | 45.43813 | -61.02079 | 38751 ft | 508 kts | 68° |
| 2026-05-05 00:53 | 45.46397 | -60.92760 | 38752 ft | 504 kts | 67° |
| 2026-05-05 00:54 | 45.48979 | -60.83453 | 38756 ft | 503 kts | 67° |
| 2026-05-05 00:54 | 45.51566 | -60.74060 | 38755 ft | 504 kts | 67° |
| 2026-05-05 00:55 | 45.54129 | -60.64716 | 38746 ft | 504 kts | 67° |
| 2026-05-05 00:55 | 45.56670 | -60.55407 | 38733 ft | 504 kts | 67° |
| 2026-05-05 00:56 | 45.59212 | -60.46058 | 38718 ft | 504 kts | 67° |
| 2026-05-05 00:56 | 45.61745 | -60.36700 | 38719 ft | 504 kts | 67° |
| 2026-05-05 00:57 | 45.64259 | -60.27387 | 38715 ft | 504 kts | 68° |
| 2026-05-05 00:57 | 45.66803 | -60.17921 | 38714 ft | 504 kts | 68° |
| 2026-05-05 00:58 | 45.69323 | -60.08503 | 38711 ft | 504 kts | 68° |
| 2026-05-05 00:58 | 45.71825 | -59.99119 | 38717 ft | 504 kts | 68° |
| 2026-05-05 00:59 | 45.74331 | -59.89678 | 38716 ft | 505 kts | 68° |
| 2026-05-05 00:59 | 45.76831 | -59.80228 | 38717 ft | 504 kts | 68° |
| 2026-05-05 01:00 | 45.79311 | -59.70815 | 38714 ft | 504 kts | 68° |
| 2026-05-05 01:00 | 45.81774 | -59.61427 | 38715 ft | 504 kts | 68° |
| 2026-05-05 01:01 | 45.84249 | -59.51952 | 38717 ft | 504 kts | 68° |
| 2026-05-05 01:01 | 45.86705 | -59.42518 | 38716 ft | 505 kts | 68° |
| 2026-05-05 01:02 | 45.89137 | -59.33133 | 38715 ft | 504 kts | 68° |
| 2026-05-05 01:02 | 45.91577 | -59.23684 | 38716 ft | 504 kts | 68° |
| 2026-05-05 01:03 | 45.94009 | -59.14226 | 38717 ft | 504 kts | 68° |
| 2026-05-05 01:03 | 45.96436 | -59.04744 | 38713 ft | 504 kts | 68° |
| 2026-05-05 01:04 | 45.98850 | -58.95251 | 38714 ft | 504 kts | 68° |
| 2026-05-05 01:04 | 46.02430 | -58.81110 | 38712 ft | 499 kts | 66° |
| 2026-05-05 01:05 | 46.04811 | -58.71701 | 38713 ft | 498 kts | 66° |
| 2026-05-05 01:05 | 46.07168 | -58.62341 | 38714 ft | 498 kts | 66° |
| 2026-05-05 01:06 | 46.09512 | -58.52984 | 38716 ft | 498 kts | 66° |
| 2026-05-05 01:06 | 46.11882 | -58.43483 | 38719 ft | 499 kts | 66° |
| 2026-05-05 01:07 | 46.14209 | -58.34112 | 38717 ft | 498 kts | 67° |
| 2026-05-05 01:07 | 46.16530 | -58.24727 | 38717 ft | 498 kts | 67° |
| 2026-05-05 01:08 | 46.18869 | -58.15225 | 38716 ft | 498 kts | 67° |
| 2026-05-05 01:08 | 46.21185 | -58.05780 | 38721 ft | 499 kts | 67° |
| 2026-05-05 01:09 | 46.23517 | -57.96226 | 38730 ft | 499 kts | 67° |
| 2026-05-05 01:09 | 46.25810 | -57.86796 | 38745 ft | 498 kts | 67° |
| 2026-05-05 01:10 | 46.28100 | -57.77335 | 38751 ft | 499 kts | 67° |
| 2026-05-05 01:10 | 46.30386 | -57.67854 | 38752 ft | 499 kts | 67° |
| 2026-05-05 01:11 | 46.32695 | -57.58228 | 38751 ft | 498 kts | 67° |
| 2026-05-05 01:11 | 46.34966 | -57.48729 | 38753 ft | 499 kts | 67° |
| 2026-05-05 01:12 | 46.37218 | -57.39262 | 38754 ft | 499 kts | 67° |
| 2026-05-05 01:12 | 46.39489 | -57.29677 | 38748 ft | 499 kts | 68° |
| 2026-05-05 01:13 | 46.41730 | -57.20181 | 38749 ft | 499 kts | 68° |
| 2026-05-05 01:13 | 46.43967 | -57.10656 | 38749 ft | 499 kts | 68° |
| 2026-05-05 01:14 | 46.46199 | -57.01101 | 38751 ft | 500 kts | 68° |
| 2026-05-05 01:14 | 46.48419 | -56.91565 | 38750 ft | 501 kts | 68° |
| 2026-05-05 01:15 | 46.50639 | -56.81993 | 38751 ft | 501 kts | 68° |
| 2026-05-05 01:15 | 46.52875 | -56.72306 | 38750 ft | 501 kts | 68° |
| 2026-05-05 01:16 | 46.55071 | -56.62751 | 38751 ft | 501 kts | 68° |
| 2026-05-05 01:16 | 46.57280 | -56.53089 | 38752 ft | 501 kts | 68° |
| 2026-05-05 01:17 | 46.59484 | -56.43413 | 38752 ft | 502 kts | 68° |
| 2026-05-05 01:17 | 46.61667 | -56.33780 | 38751 ft | 502 kts | 68° |
| 2026-05-05 01:18 | 46.63847 | -56.24125 | 38747 ft | 502 kts | 68° |
| 2026-05-05 01:18 | 46.66023 | -56.14439 | 38748 ft | 502 kts | 68° |
| 2026-05-05 01:19 | 46.68171 | -56.04829 | 38747 ft | 502 kts | 68° |
| 2026-05-05 01:19 | 46.70330 | -55.95130 | 38749 ft | 502 kts | 68° |
| 2026-05-05 01:20 | 46.72487 | -55.85393 | 38749 ft | 502 kts | 68° |
| 2026-05-05 01:20 | 46.74621 | -55.75718 | 38750 ft | 502 kts | 68° |
| 2026-05-05 01:21 | 46.76738 | -55.66072 | 38749 ft | 502 kts | 68° |
| 2026-05-05 01:21 | 46.78880 | -55.56271 | 38750 ft | 502 kts | 68° |
| 2026-05-05 01:22 | 46.80978 | -55.46622 | 38750 ft | 502 kts | 68° |
| 2026-05-05 01:22 | 46.83086 | -55.36888 | 38751 ft | 502 kts | 68° |
| 2026-05-05 01:23 | 46.85197 | -55.27090 | 38747 ft | 502 kts | 69° |
| 2026-05-05 01:23 | 46.87281 | -55.17369 | 38746 ft | 502 kts | 69° |
| 2026-05-05 01:24 | 46.89349 | -55.07641 | 38746 ft | 502 kts | 68° |
| 2026-05-05 01:24 | 46.91435 | -54.97801 | 38746 ft | 503 kts | 67° |
| 2026-05-05 01:25 | 46.93495 | -54.88073 | 38746 ft | 504 kts | 67° |
| 2026-05-05 01:25 | 46.95568 | -54.78237 | 38746 ft | 506 kts | 67° |
| 2026-05-05 01:26 | 46.97636 | -54.68367 | 38746 ft | 507 kts | 66° |
| 2026-05-05 01:26 | 46.99705 | -54.58436 | 38748 ft | 509 kts | 66° |
| 2026-05-05 01:27 | 47.01764 | -54.48502 | 38748 ft | 511 kts | 66° |
| 2026-05-05 01:27 | 47.03842 | -54.38437 | 38739 ft | 513 kts | 66° |
| 2026-05-05 01:28 | 47.05897 | -54.28431 | 38711 ft | 514 kts | 67° |
| 2026-05-05 01:28 | 47.07954 | -54.18366 | 38708 ft | 513 kts | 67° |
| 2026-05-05 01:29 | 47.10008 | -54.08254 | 38709 ft | 514 kts | 67° |
| 2026-05-05 01:29 | 47.12035 | -53.98223 | 38719 ft | 514 kts | 67° |
| 2026-05-05 01:30 | 47.14065 | -53.88132 | 38721 ft | 513 kts | 67° |
| 2026-05-05 01:30 | 47.16094 | -53.77993 | 38721 ft | 514 kts | 67° |
| 2026-05-05 01:31 | 47.18104 | -53.67897 | 38722 ft | 514 kts | 67° |
| 2026-05-05 01:31 | 47.20097 | -53.57829 | 38722 ft | 514 kts | 67° |
| 2026-05-05 01:32 | 47.22092 | -53.47706 | 38723 ft | 514 kts | 67° |
| 2026-05-05 01:32 | 47.24071 | -53.37606 | 38725 ft | 513 kts | 67° |
| 2026-05-05 01:33 | 47.26052 | -53.27448 | 38717 ft | 514 kts | 68° |
| 2026-05-05 01:33 | 47.28007 | -53.17360 | 38716 ft | 514 kts | 68° |
| 2026-05-05 01:34 | 47.29969 | -53.07190 | 38716 ft | 514 kts | 68° |
| 2026-05-05 01:34 | 47.31919 | -52.97002 | 38718 ft | 515 kts | 67° |
| 2026-05-05 01:35 | 47.33852 | -52.86832 | 38719 ft | 515 kts | 66° |
| 2026-05-05 01:35 | 47.35789 | -52.76623 | 38719 ft | 515 kts | 66° |
| 2026-05-05 01:36 | 47.37725 | -52.66415 | 38721 ft | 515 kts | 66° |
| 2026-05-05 01:36 | 47.39641 | -52.56227 | 38721 ft | 515 kts | 66° |
| 2026-05-05 01:37 | 47.41558 | -52.45966 | 38722 ft | 515 kts | 66° |
| 2026-05-05 01:37 | 47.43454 | -52.35762 | 38723 ft | 515 kts | 66° |
| 2026-05-05 01:38 | 47.45338 | -52.25565 | 38715 ft | 516 kts | 66° |
| 2026-05-05 01:38 | 47.47221 | -52.15311 | 38714 ft | 516 kts | 66° |
| 2026-05-05 01:39 | 47.49105 | -52.04994 | 38715 ft | 516 kts | 66° |
| 2026-05-05 01:39 | 47.51324 | -51.95042 | 38726 ft | 508 kts | 60° |
| 2026-05-05 01:40 | 47.53850 | -51.85280 | 38717 ft | 508 kts | 60° |
| 2026-05-05 01:40 | 47.56375 | -51.75519 | 38717 ft | 508 kts | 60° |
| 2026-05-05 01:41 | 47.58896 | -51.65738 | 38717 ft | 508 kts | 60° |
| 2026-05-05 01:41 | 47.61410 | -51.55944 | 38718 ft | 508 kts | 60° |
| 2026-05-05 01:42 | 47.63921 | -51.46121 | 38720 ft | 508 kts | 60° |
| 2026-05-05 01:42 | 47.66415 | -51.36324 | 38720 ft | 509 kts | 60° |
| 2026-05-05 01:43 | 47.68912 | -51.26474 | 38711 ft | 509 kts | 61° |
| 2026-05-05 01:43 | 47.71422 | -51.16526 | 38710 ft | 510 kts | 61° |
| 2026-05-05 01:44 | 47.73887 | -51.06705 | 38710 ft | 510 kts | 60° |
| 2026-05-05 01:44 | 47.76347 | -50.96846 | 38712 ft | 511 kts | 60° |
| 2026-05-05 01:45 | 47.78833 | -50.86858 | 38712 ft | 512 kts | 59° |
| 2026-05-05 01:45 | 47.81297 | -50.76945 | 38713 ft | 512 kts | 59° |
| 2026-05-05 01:46 | 47.83768 | -50.66948 | 38713 ft | 512 kts | 59° |
| 2026-05-05 01:46 | 47.86221 | -50.56972 | 38714 ft | 512 kts | 59° |
| 2026-05-05 01:47 | 47.88650 | -50.47043 | 38715 ft | 512 kts | 59° |
| 2026-05-05 01:47 | 47.91076 | -50.37086 | 38716 ft | 512 kts | 59° |
| 2026-05-05 01:48 | 47.93510 | -50.27050 | 38707 ft | 513 kts | 60° |
| 2026-05-05 01:48 | 47.95934 | -50.17006 | 38706 ft | 513 kts | 60° |
| 2026-05-05 01:49 | 47.98332 | -50.07024 | 38706 ft | 513 kts | 60° |
| 2026-05-05 01:49 | 48.00796 | -49.96940 | 38708 ft | 511 kts | 59° |
| 2026-05-05 01:50 | 48.03302 | -49.86973 | 38712 ft | 517 kts | 59° |
| 2026-05-05 01:50 | 48.05837 | -49.76852 | 38708 ft | 517 kts | 59° |
| 2026-05-05 01:51 | 48.08354 | -49.66756 | 38709 ft | 517 kts | 59° |
| 2026-05-05 01:51 | 48.10860 | -49.56667 | 38726 ft | 517 kts | 59° |
| 2026-05-05 01:52 | 48.13337 | -49.46655 | 38728 ft | 517 kts | 59° |
| 2026-05-05 01:52 | 48.15837 | -49.36505 | 38729 ft | 517 kts | 59° |
| 2026-05-05 01:53 | 48.18318 | -49.26385 | 38720 ft | 518 kts | 60° |
| 2026-05-05 01:53 | 48.20806 | -49.16184 | 38719 ft | 518 kts | 60° |
| 2026-05-05 01:54 | 48.23270 | -49.06037 | 38719 ft | 519 kts | 60° |
| 2026-05-05 01:54 | 48.25745 | -48.95799 | 38720 ft | 520 kts | 60° |
| 2026-05-05 01:55 | 48.28199 | -48.85600 | 38720 ft | 520 kts | 60° |
| 2026-05-05 01:55 | 48.30647 | -48.75386 | 38721 ft | 520 kts | 60° |
| 2026-05-05 01:56 | 48.33083 | -48.65168 | 38723 ft | 519 kts | 60° |
| 2026-05-05 01:56 | 48.35506 | -48.54956 | 38723 ft | 520 kts | 60° |
| 2026-05-05 01:57 | 48.37938 | -48.44661 | 38724 ft | 520 kts | 60° |
| 2026-05-05 01:57 | 48.40348 | -48.34408 | 38724 ft | 520 kts | 60° |
| 2026-05-05 01:58 | 48.42764 | -48.24087 | 38715 ft | 521 kts | 60° |
| 2026-05-05 01:58 | 48.45182 | -48.13699 | 38714 ft | 521 kts | 60° |
| 2026-05-05 01:59 | 48.47575 | -48.03372 | 38716 ft | 521 kts | 60° |
| 2026-05-05 01:59 | 48.49952 | -47.93063 | 38716 ft | 521 kts | 60° |
| 2026-05-05 02:00 | 48.52326 | -47.82721 | 38717 ft | 521 kts | 60° |
| 2026-05-05 02:00 | 48.54682 | -47.72400 | 38717 ft | 521 kts | 60° |
| 2026-05-05 02:01 | 48.57029 | -47.62078 | 38719 ft | 521 kts | 60° |
| 2026-05-05 02:01 | 48.59394 | -47.51622 | 38720 ft | 521 kts | 60° |
| 2026-05-05 02:02 | 48.61722 | -47.41275 | 38721 ft | 521 kts | 60° |
| 2026-05-05 02:02 | 48.64035 | -47.30953 | 38709 ft | 522 kts | 61° |
| 2026-05-05 02:03 | 48.66367 | -47.20487 | 38710 ft | 522 kts | 61° |
| 2026-05-05 02:03 | 48.68677 | -47.10070 | 38711 ft | 522 kts | 61° |
| 2026-05-05 02:04 | 48.70981 | -46.99626 | 38712 ft | 522 kts | 61° |
| 2026-05-05 02:04 | 48.73278 | -46.89157 | 38713 ft | 522 kts | 61° |
| 2026-05-05 02:05 | 48.75554 | -46.78737 | 38713 ft | 523 kts | 61° |
| 2026-05-05 02:05 | 48.77824 | -46.68299 | 38714 ft | 522 kts | 61° |
| 2026-05-05 02:06 | 48.80109 | -46.57733 | 38715 ft | 522 kts | 61° |
| 2026-05-05 02:06 | 48.82359 | -46.47274 | 38716 ft | 522 kts | 61° |
| 2026-05-05 02:07 | 48.84599 | -46.36807 | 38717 ft | 522 kts | 61° |
| 2026-05-05 02:07 | 48.86851 | -46.26239 | 38708 ft | 524 kts | 62° |
| 2026-05-05 02:08 | 48.89084 | -46.15697 | 38707 ft | 524 kts | 62° |
| 2026-05-05 02:08 | 48.91306 | -46.05148 | 38707 ft | 524 kts | 62° |
| 2026-05-05 02:09 | 48.93514 | -45.94614 | 38708 ft | 523 kts | 62° |
| 2026-05-05 02:09 | 48.95717 | -45.84052 | 38709 ft | 523 kts | 62° |
| 2026-05-05 02:10 | 48.97913 | -45.73472 | 38710 ft | 521 kts | 62° |
| 2026-05-05 02:10 | 49.00079 | -45.62982 | 38710 ft | 516 kts | 63° |
| 2026-05-05 02:11 | 49.02217 | -45.52569 | 38711 ft | 513 kts | 63° |
| 2026-05-05 02:11 | 49.04332 | -45.42215 | 38712 ft | 510 kts | 63° |
| 2026-05-05 02:12 | 49.07472 | -45.26748 | 38724 ft | 507 kts | 64° |
| 2026-05-05 02:13 | 49.09537 | -45.16501 | 38723 ft | 504 kts | 65° |
| 2026-05-05 02:13 | 49.11586 | -45.06271 | 38738 ft | 502 kts | 65° |
| 2026-05-05 02:14 | 49.13621 | -44.96022 | 38740 ft | 502 kts | 64° |
| 2026-05-05 02:14 | 49.15641 | -44.85819 | 38741 ft | 503 kts | 64° |
| 2026-05-05 02:15 | 49.17662 | -44.75605 | 38741 ft | 503 kts | 64° |
| 2026-05-05 02:15 | 49.19673 | -44.65375 | 38742 ft | 503 kts | 64° |
| 2026-05-05 02:16 | 49.21683 | -44.55086 | 38742 ft | 503 kts | 64° |
| 2026-05-05 02:16 | 49.23667 | -44.44873 | 38742 ft | 503 kts | 64° |
| 2026-05-05 02:17 | 49.25656 | -44.34577 | 38743 ft | 503 kts | 65° |
| 2026-05-05 02:17 | 49.27630 | -44.24306 | 38736 ft | 504 kts | 65° |
| 2026-05-05 02:18 | 49.29607 | -44.13959 | 38736 ft | 504 kts | 65° |
| 2026-05-05 02:18 | 49.31566 | -44.03650 | 38737 ft | 503 kts | 65° |
| 2026-05-05 02:19 | 49.33515 | -43.93339 | 38737 ft | 503 kts | 65° |
| 2026-05-05 02:19 | 49.35458 | -43.83004 | 38738 ft | 503 kts | 65° |
| 2026-05-05 02:20 | 49.37401 | -43.72607 | 38738 ft | 503 kts | 65° |
| 2026-05-05 02:20 | 49.39311 | -43.62333 | 38738 ft | 503 kts | 65° |
| 2026-05-05 02:21 | 49.41230 | -43.51953 | 38739 ft | 503 kts | 65° |
| 2026-05-05 02:21 | 49.43141 | -43.41555 | 38739 ft | 503 kts | 65° |
| 2026-05-05 02:22 | 49.45026 | -43.31245 | 38732 ft | 504 kts | 65° |
| 2026-05-05 02:22 | 49.46919 | -43.20830 | 38733 ft | 504 kts | 65° |
| 2026-05-05 02:23 | 49.48803 | -43.10393 | 38734 ft | 509 kts | 65° |
| 2026-05-05 02:23 | 49.50704 | -42.99816 | 38734 ft | 517 kts | 65° |
| 2026-05-05 02:24 | 49.52623 | -42.89076 | 38735 ft | 521 kts | 65° |
| 2026-05-05 02:24 | 49.54534 | -42.78310 | 38734 ft | 519 kts | 65° |
| 2026-05-05 02:25 | 49.56421 | -42.67619 | 38736 ft | 519 kts | 65° |
| 2026-05-05 02:25 | 49.58317 | -42.56810 | 38737 ft | 519 kts | 65° |
| 2026-05-05 02:26 | 49.60193 | -42.46053 | 38737 ft | 519 kts | 65° |
| 2026-05-05 02:26 | 49.62050 | -42.35335 | 38738 ft | 519 kts | 65° |
| 2026-05-05 02:27 | 49.63910 | -42.24546 | 38731 ft | 521 kts | 66° |
| 2026-05-05 02:27 | 49.65772 | -42.13662 | 38730 ft | 521 kts | 66° |
| 2026-05-05 02:28 | 49.67614 | -42.02831 | 38730 ft | 521 kts | 66° |
| 2026-05-05 02:28 | 49.69451 | -41.91962 | 38731 ft | 521 kts | 66° |
| 2026-05-05 02:29 | 49.71272 | -41.81119 | 38732 ft | 521 kts | 66° |
| 2026-05-05 02:29 | 49.73079 | -41.70295 | 38733 ft | 521 kts | 66° |
| 2026-05-05 02:30 | 49.74888 | -41.59390 | 38734 ft | 521 kts | 66° |
| 2026-05-05 02:30 | 49.76675 | -41.48547 | 38734 ft | 521 kts | 66° |
| 2026-05-05 02:31 | 49.78455 | -41.37676 | 38735 ft | 521 kts | 66° |
| 2026-05-05 02:31 | 49.80241 | -41.26706 | 38728 ft | 522 kts | 66° |
| 2026-05-05 02:32 | 49.81993 | -41.15863 | 38727 ft | 522 kts | 66° |
| 2026-05-05 02:32 | 49.83743 | -41.04962 | 38727 ft | 522 kts | 66° |
| 2026-05-05 02:33 | 49.85510 | -40.93905 | 38795 ft | 528 kts | 67° |
| 2026-05-05 02:33 | 49.87275 | -40.82793 | 38931 ft | 538 kts | 67° |
| 2026-05-05 02:34 | 49.89060 | -40.71442 | 39038 ft | 542 kts | 67° |
| 2026-05-05 02:34 | 49.90837 | -40.60033 | 39084 ft | 540 kts | 67° |
| 2026-05-05 02:35 | 49.92587 | -40.48754 | 39126 ft | 540 kts | 67° |
| 2026-05-05 02:35 | 49.94335 | -40.37410 | 39129 ft | 540 kts | 67° |
| 2026-05-05 02:36 | 49.96082 | -40.26001 | 39119 ft | 541 kts | 68° |
| 2026-05-05 02:36 | 49.97810 | -40.14624 | 39118 ft | 541 kts | 68° |
| 2026-05-05 02:37 | 49.99529 | -40.03223 | 39119 ft | 541 kts | 68° |
| 2026-05-05 02:37 | 50.00600 | -39.97629 | 39120 ft | 529 kts | 59° |
| 2026-05-05 02:37 | 50.01940 | -39.92315 | 39125 ft | 529 kts | 59° |
| 2026-05-05 02:38 | 50.04615 | -39.81707 | 39121 ft | 528 kts | 59° |
| 2026-05-05 02:38 | 50.07288 | -39.71042 | 39122 ft | 528 kts | 59° |
| 2026-05-05 02:39 | 50.09951 | -39.60354 | 39123 ft | 528 kts | 59° |
| 2026-05-05 02:39 | 50.12590 | -39.49711 | 39139 ft | 528 kts | 59° |
| 2026-05-05 02:40 | 50.15225 | -39.39029 | 39140 ft | 528 kts | 59° |
| 2026-05-05 02:40 | 50.17870 | -39.28263 | 39130 ft | 529 kts | 59° |
| 2026-05-05 02:41 | 50.20502 | -39.17486 | 39130 ft | 529 kts | 59° |
| 2026-05-05 02:41 | 50.23098 | -39.06814 | 39130 ft | 530 kts | 60° |
| 2026-05-05 02:42 | 50.25759 | -38.95860 | 39104 ft | 535 kts | 60° |
| 2026-05-05 02:42 | 50.28379 | -38.84977 | 39105 ft | 537 kts | 61° |
| 2026-05-05 02:43 | 50.30980 | -38.74083 | 39105 ft | 537 kts | 61° |
| 2026-05-05 02:43 | 50.33603 | -38.63058 | 39107 ft | 536 kts | 61° |
| 2026-05-05 02:44 | 50.36190 | -38.52145 | 39108 ft | 536 kts | 61° |
| 2026-05-05 02:44 | 50.38785 | -38.41144 | 39109 ft | 536 kts | 61° |
| 2026-05-05 02:45 | 50.41367 | -38.30150 | 39097 ft | 537 kts | 62° |
| 2026-05-05 02:45 | 50.43942 | -38.19119 | 39099 ft | 537 kts | 62° |
| 2026-05-05 02:46 | 50.46502 | -38.08098 | 39100 ft | 537 kts | 62° |
| 2026-05-05 02:46 | 50.49060 | -37.97024 | 39101 ft | 537 kts | 62° |
| 2026-05-05 02:47 | 50.51603 | -37.85966 | 39102 ft | 537 kts | 62° |
| 2026-05-05 02:47 | 50.54092 | -37.75087 | 39103 ft | 537 kts | 62° |
| 2026-05-05 02:48 | 50.56630 | -37.63934 | 39104 ft | 537 kts | 62° |
| 2026-05-05 02:48 | 50.59160 | -37.52754 | 39105 ft | 537 kts | 62° |
| 2026-05-05 02:49 | 50.61670 | -37.41607 | 39106 ft | 537 kts | 62° |
| 2026-05-05 02:49 | 50.64159 | -37.30498 | 39094 ft | 538 kts | 63° |
| 2026-05-05 02:50 | 50.66659 | -37.19278 | 39477 ft | 540 kts | 63° |
| 2026-05-05 02:50 | 50.67906 | -37.13671 | 39777 ft | 540 kts | 63° |
| 2026-05-05 02:50 | 50.69162 | -37.08014 | 40032 ft | 539 kts | 64° |
| 2026-05-05 02:51 | 50.71638 | -36.96802 | 40099 ft | 539 kts | 65° |
| 2026-05-05 02:51 | 50.74101 | -36.85534 | 40100 ft | 538 kts | 65° |
| 2026-05-05 02:52 | 50.76527 | -36.74382 | 40101 ft | 538 kts | 65° |
| 2026-05-05 02:52 | 50.78955 | -36.63176 | 40102 ft | 538 kts | 65° |
| 2026-05-05 02:53 | 50.81367 | -36.51985 | 40103 ft | 538 kts | 65° |
| 2026-05-05 02:53 | 50.83789 | -36.40692 | 40104 ft | 538 kts | 65° |
| 2026-05-05 02:54 | 50.86181 | -36.29482 | 40093 ft | 539 kts | 65° |
| 2026-05-05 02:54 | 50.88581 | -36.18164 | 40096 ft | 539 kts | 65° |
| 2026-05-05 02:55 | 50.90957 | -36.06899 | 40096 ft | 535 kts | 66° |
| 2026-05-05 02:55 | 50.93301 | -35.95724 | 40097 ft | 532 kts | 66° |
| 2026-05-05 02:56 | 50.95614 | -35.84637 | 40098 ft | 529 kts | 66° |
| 2026-05-05 02:56 | 50.97922 | -35.73513 | 40099 ft | 526 kts | 66° |
| 2026-05-05 02:57 | 51.00194 | -35.62504 | 40100 ft | 524 kts | 66° |
| 2026-05-05 02:57 | 51.02448 | -35.51514 | 40100 ft | 522 kts | 66° |
| 2026-05-05 02:58 | 51.04637 | -35.40783 | 40100 ft | 520 kts | 66° |
| 2026-05-05 02:58 | 51.06833 | -35.29958 | 40093 ft | 521 kts | 67° |
| 2026-05-05 02:59 | 51.09071 | -35.18857 | 40093 ft | 521 kts | 67° |
| 2026-05-05 02:59 | 51.11006 | -35.09216 | 40103 ft | 521 kts | 67° |
| 2026-05-05 03:00 | 51.13331 | -34.97572 | 40148 ft | 521 kts | 68° |
| 2026-05-05 03:00 | 51.15540 | -34.86453 | 40300 ft | 524 kts | 68° |
| 2026-05-05 03:01 | 51.17745 | -34.75280 | 40435 ft | 527 kts | 68° |
| 2026-05-05 03:01 | 51.19923 | -34.64160 | 40410 ft | 527 kts | 68° |
| 2026-05-05 03:02 | 51.22121 | -34.52885 | 40384 ft | 526 kts | 68° |
| 2026-05-05 03:02 | 51.24279 | -34.41751 | 40395 ft | 525 kts | 68° |
| 2026-05-05 03:03 | 51.26432 | -34.30589 | 40399 ft | 526 kts | 69° |
| 2026-05-05 03:03 | 51.28575 | -34.19407 | 40395 ft | 526 kts | 69° |
| 2026-05-05 03:04 | 51.30702 | -34.08235 | 40378 ft | 527 kts | 69° |
| 2026-05-05 03:04 | 51.32821 | -33.97039 | 40372 ft | 526 kts | 69° |
| 2026-05-05 03:05 | 51.34951 | -33.85732 | 40373 ft | 526 kts | 69° |
| 2026-05-05 03:05 | 51.37049 | -33.74517 | 40374 ft | 526 kts | 69° |
| 2026-05-05 03:06 | 51.39137 | -33.63283 | 40374 ft | 526 kts | 69° |
| 2026-05-05 03:06 | 51.41230 | -33.51964 | 40375 ft | 526 kts | 69° |
| 2026-05-05 03:07 | 51.43308 | -33.40655 | 40375 ft | 526 kts | 69° |
| 2026-05-05 03:07 | 51.45358 | -33.29433 | 40368 ft | 527 kts | 70° |
| 2026-05-05 03:08 | 51.47428 | -33.18025 | 40369 ft | 527 kts | 70° |
| 2026-05-05 03:08 | 51.49467 | -33.06716 | 40370 ft | 527 kts | 70° |
| 2026-05-05 03:09 | 51.51497 | -32.95408 | 40371 ft | 527 kts | 70° |
| 2026-05-05 03:09 | 51.53526 | -32.84014 | 40372 ft | 528 kts | 70° |
| 2026-05-05 03:10 | 51.55540 | -32.72617 | 40374 ft | 527 kts | 70° |
| 2026-05-05 03:10 | 51.57534 | -32.61273 | 40373 ft | 528 kts | 70° |
| 2026-05-05 03:11 | 51.59536 | -32.49815 | 40376 ft | 528 kts | 70° |
| 2026-05-05 03:11 | 51.61509 | -32.38451 | 40377 ft | 528 kts | 70° |
| 2026-05-05 03:12 | 51.63493 | -32.26958 | 40346 ft | 528 kts | 71° |
| 2026-05-05 03:12 | 51.65455 | -32.15499 | 40338 ft | 529 kts | 71° |
| 2026-05-05 03:13 | 51.67410 | -32.04015 | 40342 ft | 529 kts | 71° |
| 2026-05-05 03:13 | 51.69349 | -31.92549 | 40344 ft | 529 kts | 71° |
| 2026-05-05 03:14 | 51.71269 | -31.81120 | 40344 ft | 529 kts | 71° |
| 2026-05-05 03:14 | 51.73184 | -31.69640 | 40346 ft | 529 kts | 71° |
| 2026-05-05 03:15 | 51.75082 | -31.58188 | 40346 ft | 528 kts | 71° |
| 2026-05-05 03:15 | 51.76975 | -31.46690 | 40348 ft | 529 kts | 71° |
| 2026-05-05 03:16 | 51.78799 | -31.35541 | 40350 ft | 529 kts | 71° |
| 2026-05-05 03:16 | 51.80716 | -31.23744 | 40344 ft | 529 kts | 72° |
| 2026-05-05 03:17 | 51.82581 | -31.12181 | 40343 ft | 530 kts | 72° |
| 2026-05-05 03:17 | 51.84441 | -31.00597 | 40340 ft | 532 kts | 72° |
| 2026-05-05 03:18 | 51.86286 | -30.88994 | 40345 ft | 533 kts | 72° |
| 2026-05-05 03:18 | 51.88121 | -30.77363 | 40344 ft | 533 kts | 72° |
| 2026-05-05 03:19 | 51.90859 | -30.59867 | 40346 ft | 533 kts | 72° |
| 2026-05-05 03:19 | 51.92619 | -30.48535 | 40349 ft | 533 kts | 72° |
| 2026-05-05 03:20 | 51.94416 | -30.36872 | 40350 ft | 533 kts | 72° |
| 2026-05-05 03:20 | 51.96198 | -30.25213 | 40345 ft | 533 kts | 73° |
| 2026-05-05 03:21 | 51.97985 | -30.13454 | 40341 ft | 533 kts | 73° |
| 2026-05-05 03:21 | 51.99755 | -30.01756 | 40341 ft | 532 kts | 72° |
| 2026-05-05 03:22 | 52.02360 | -29.90644 | 40341 ft | 529 kts | 64° |
| 2026-05-05 03:22 | 52.05170 | -29.79491 | 40342 ft | 529 kts | 64° |
| 2026-05-05 03:23 | 52.07924 | -29.68498 | 40431 ft | 532 kts | 64° |
| 2026-05-05 03:23 | 52.09306 | -29.62952 | 40730 ft | 531 kts | 64° |
| 2026-05-05 03:23 | 52.10690 | -29.57379 | 41034 ft | 530 kts | 64° |
| 2026-05-05 03:24 | 52.12080 | -29.51779 | 41274 ft | 529 kts | 64° |
| 2026-05-05 03:24 | 52.13454 | -29.46222 | 41336 ft | 530 kts | 64° |
| 2026-05-05 03:24 | 52.16182 | -29.35141 | 41348 ft | 528 kts | 64° |
| 2026-05-05 03:25 | 52.18911 | -29.24004 | 41343 ft | 529 kts | 65° |
| 2026-05-05 03:25 | 52.21631 | -29.12854 | 41345 ft | 530 kts | 65° |
| 2026-05-05 03:26 | 52.24336 | -29.01688 | 41343 ft | 528 kts | 65° |
| 2026-05-05 03:26 | 52.27026 | -28.90560 | 41350 ft | 531 kts | 65° |
| 2026-05-05 03:27 | 52.29744 | -28.79240 | 41347 ft | 535 kts | 65° |
| 2026-05-05 03:27 | 52.32446 | -28.67927 | 41351 ft | 536 kts | 65° |
| 2026-05-05 03:28 | 52.35147 | -28.56552 | 41350 ft | 535 kts | 65° |
| 2026-05-05 03:28 | 52.37817 | -28.45251 | 41348 ft | 535 kts | 65° |
| 2026-05-05 03:29 | 52.40491 | -28.33865 | 41347 ft | 534 kts | 66° |
| 2026-05-05 03:29 | 52.43153 | -28.22496 | 41340 ft | 536 kts | 66° |
| 2026-05-05 03:30 | 52.45807 | -28.11078 | 41341 ft | 535 kts | 66° |
| 2026-05-05 03:30 | 52.48455 | -27.99631 | 41344 ft | 535 kts | 66° |
| 2026-05-05 03:31 | 52.51076 | -27.88240 | 41345 ft | 535 kts | 66° |
| 2026-05-05 03:31 | 52.53696 | -27.76804 | 41346 ft | 536 kts | 66° |
| 2026-05-05 03:32 | 52.56307 | -27.65322 | 41345 ft | 535 kts | 66° |
| 2026-05-05 03:32 | 52.58889 | -27.53931 | 41352 ft | 535 kts | 66° |
| 2026-05-05 03:33 | 52.61471 | -27.42464 | 41349 ft | 535 kts | 66° |
| 2026-05-05 03:33 | 52.64045 | -27.30961 | 41338 ft | 535 kts | 67° |
| 2026-05-05 03:34 | 52.66610 | -27.19448 | 41339 ft | 535 kts | 66° |
| 2026-05-05 03:34 | 52.69158 | -27.07945 | 41345 ft | 535 kts | 66° |
| 2026-05-05 03:35 | 52.71697 | -26.96425 | 41344 ft | 537 kts | 67° |
| 2026-05-05 03:35 | 52.74256 | -26.84755 | 41346 ft | 540 kts | 67° |
| 2026-05-05 03:36 | 52.76774 | -26.73176 | 41345 ft | 539 kts | 67° |
| 2026-05-05 03:36 | 52.79298 | -26.61528 | 41346 ft | 539 kts | 67° |
| 2026-05-05 03:37 | 52.81822 | -26.49801 | 41348 ft | 539 kts | 67° |
| 2026-05-05 03:37 | 52.84315 | -26.38160 | 41348 ft | 539 kts | 67° |
| 2026-05-05 03:38 | 52.86803 | -26.26475 | 41343 ft | 539 kts | 68° |
| 2026-05-05 03:38 | 52.89277 | -26.14783 | 41341 ft | 539 kts | 68° |
| 2026-05-05 03:39 | 52.91756 | -26.03009 | 41342 ft | 539 kts | 68° |
| 2026-05-05 03:39 | 52.94192 | -25.91358 | 41344 ft | 539 kts | 68° |
| 2026-05-05 03:40 | 52.96651 | -25.79543 | 41346 ft | 539 kts | 68° |
| 2026-05-05 03:40 | 52.99071 | -25.67830 | 41344 ft | 535 kts | 68° |
| 2026-05-05 03:41 | 53.01453 | -25.56244 | 41345 ft | 530 kts | 68° |
| 2026-05-05 03:41 | 53.03833 | -25.44599 | 41347 ft | 526 kts | 68° |
| 2026-05-05 03:42 | 53.06155 | -25.33179 | 41346 ft | 524 kts | 69° |
| 2026-05-05 03:42 | 53.08467 | -25.21740 | 41340 ft | 520 kts | 69° |
| 2026-05-05 03:43 | 53.10766 | -25.10304 | 41344 ft | 519 kts | 69° |
| 2026-05-05 03:43 | 53.13047 | -24.98889 | 41344 ft | 520 kts | 69° |
| 2026-05-05 03:44 | 53.15315 | -24.87458 | 41346 ft | 522 kts | 69° |
| 2026-05-05 03:44 | 53.17591 | -24.75908 | 41345 ft | 522 kts | 69° |
| 2026-05-05 03:45 | 53.19827 | -24.64504 | 41346 ft | 522 kts | 69° |
| 2026-05-05 03:45 | 53.22070 | -24.53000 | 41347 ft | 521 kts | 69° |
| 2026-05-05 03:46 | 53.24311 | -24.41438 | 41348 ft | 522 kts | 69° |
| 2026-05-05 03:46 | 53.26522 | -24.29963 | 41341 ft | 522 kts | 70° |
| 2026-05-05 03:47 | 53.28728 | -24.18444 | 41343 ft | 522 kts | 70° |
| 2026-05-05 03:47 | 53.30920 | -24.06925 | 41344 ft | 522 kts | 70° |
| 2026-05-05 03:48 | 53.33118 | -23.95303 | 41344 ft | 522 kts | 70° |
| 2026-05-05 03:48 | 53.35297 | -23.83715 | 41345 ft | 522 kts | 70° |
| 2026-05-05 03:49 | 53.37457 | -23.72156 | 41346 ft | 522 kts | 70° |
| 2026-05-05 03:49 | 53.39613 | -23.60547 | 41346 ft | 522 kts | 70° |
| 2026-05-05 03:50 | 53.41748 | -23.48973 | 41347 ft | 522 kts | 70° |
| 2026-05-05 03:50 | 53.43888 | -23.37310 | 41347 ft | 522 kts | 70° |
| 2026-05-05 03:51 | 53.46011 | -23.25664 | 41343 ft | 522 kts | 71° |
| 2026-05-05 03:51 | 53.48121 | -23.14007 | 41343 ft | 522 kts | 71° |
| 2026-05-05 03:52 | 53.50214 | -23.02373 | 41343 ft | 522 kts | 71° |
| 2026-05-05 03:52 | 53.52312 | -22.90653 | 41345 ft | 523 kts | 71° |
| 2026-05-05 03:53 | 53.54398 | -22.78918 | 41345 ft | 525 kts | 71° |
| 2026-05-05 03:53 | 53.56471 | -22.67156 | 41345 ft | 525 kts | 72° |
| 2026-05-05 03:54 | 53.58532 | -22.55392 | 41347 ft | 525 kts | 72° |
| 2026-05-05 03:54 | 53.60593 | -22.43553 | 41348 ft | 525 kts | 72° |
| 2026-05-05 03:55 | 53.62622 | -22.31827 | 41343 ft | 525 kts | 72° |
| 2026-05-05 03:55 | 53.64656 | -22.19987 | 41342 ft | 525 kts | 72° |
| 2026-05-05 03:56 | 53.66682 | -22.08122 | 41344 ft | 525 kts | 72° |
| 2026-05-05 03:56 | 53.68682 | -21.96322 | 41344 ft | 525 kts | 72° |
| 2026-05-05 03:57 | 53.70688 | -21.84423 | 41345 ft | 526 kts | 72° |
| 2026-05-05 03:57 | 53.72657 | -21.72649 | 41345 ft | 526 kts | 72° |
| 2026-05-05 03:58 | 53.74632 | -21.60757 | 41346 ft | 525 kts | 72° |
| 2026-05-05 03:58 | 53.76611 | -21.48757 | 41347 ft | 525 kts | 72° |
| 2026-05-05 03:59 | 53.78565 | -21.36831 | 41347 ft | 526 kts | 72° |
| 2026-05-05 03:59 | 53.80505 | -21.24912 | 41343 ft | 526 kts | 73° |
| 2026-05-05 04:00 | 53.82439 | -21.12937 | 41343 ft | 526 kts | 73° |
| 2026-05-05 04:00 | 53.84363 | -21.00961 | 41344 ft | 527 kts | 73° |
| 2026-05-05 04:01 | 53.86283 | -20.88921 | 41346 ft | 528 kts | 74° |
| 2026-05-05 04:01 | 53.88179 | -20.76909 | 41346 ft | 529 kts | 74° |
| 2026-05-05 04:02 | 53.90075 | -20.64818 | 41347 ft | 528 kts | 74° |
| 2026-05-05 04:02 | 53.91957 | -20.52737 | 41347 ft | 528 kts | 74° |
| 2026-05-05 04:03 | 53.93810 | -20.40747 | 41349 ft | 528 kts | 74° |
| 2026-05-05 04:03 | 53.95672 | -20.28624 | 41342 ft | 528 kts | 75° |
| 2026-05-05 04:04 | 53.97523 | -20.16486 | 41343 ft | 528 kts | 75° |
| 2026-05-05 04:04 | 53.99244 | -20.04419 | 41329 ft | 529 kts | 81° |
| 2026-05-05 04:05 | 53.99964 | -19.91893 | 41343 ft | 528 kts | 86° |
| 2026-05-05 04:05 | 54.00351 | -19.79462 | 41346 ft | 528 kts | 88° |
| 2026-05-05 04:06 | 54.00630 | -19.66965 | 41346 ft | 528 kts | 88° |
| 2026-05-05 04:06 | 54.00864 | -19.54468 | 41348 ft | 528 kts | 88° |
| 2026-05-05 04:07 | 54.01073 | -19.42017 | 41348 ft | 528 kts | 88° |
| 2026-05-05 04:07 | 54.01268 | -19.29496 | 41243 ft | 528 kts | 89° |
| 2026-05-05 04:08 | 54.01450 | -19.16976 | 41135 ft | 528 kts | 89° |
| 2026-05-05 04:08 | 54.01619 | -19.04517 | 41129 ft | 530 kts | 90° |
| 2026-05-05 04:09 | 54.01775 | -18.91935 | 41130 ft | 531 kts | 90° |
| 2026-05-05 04:09 | 54.01914 | -18.79323 | 41130 ft | 531 kts | 90° |
| 2026-05-05 04:10 | 54.02040 | -18.66834 | 41132 ft | 531 kts | 90° |
| 2026-05-05 04:10 | 54.02155 | -18.54244 | 41132 ft | 531 kts | 90° |
| 2026-05-05 04:11 | 54.02257 | -18.41676 | 41133 ft | 531 kts | 90° |
| 2026-05-05 04:11 | 54.02347 | -18.29152 | 41127 ft | 531 kts | 91° |
| 2026-05-05 04:12 | 54.02424 | -18.16632 | 41128 ft | 530 kts | 91° |
| 2026-05-05 04:12 | 54.02485 | -18.04095 | 41129 ft | 530 kts | 91° |
| 2026-05-05 04:13 | 54.02535 | -17.91547 | 41130 ft | 530 kts | 91° |
| 2026-05-05 04:13 | 54.02571 | -17.79002 | 41131 ft | 531 kts | 91° |
| 2026-05-05 04:14 | 54.02595 | -17.66472 | 41132 ft | 530 kts | 91° |
| 2026-05-05 04:14 | 54.02605 | -17.53946 | 41132 ft | 530 kts | 91° |
| 2026-05-05 04:15 | 54.02602 | -17.41414 | 41133 ft | 531 kts | 91° |
| 2026-05-05 04:15 | 54.02588 | -17.28815 | 41126 ft | 530 kts | 92° |
| 2026-05-05 04:16 | 54.02559 | -17.16287 | 41128 ft | 530 kts | 92° |
| 2026-05-05 04:16 | 54.02517 | -17.03714 | 41129 ft | 530 kts | 92° |
| 2026-05-05 04:17 | 54.02467 | -16.91140 | 41131 ft | 533 kts | 92° |
| 2026-05-05 04:17 | 54.02403 | -16.78523 | 41132 ft | 534 kts | 93° |
| 2026-05-05 04:18 | 54.02315 | -16.65898 | 41132 ft | 535 kts | 93° |
| 2026-05-05 04:18 | 54.02218 | -16.53234 | 41134 ft | 534 kts | 92° |
| 2026-05-05 04:19 | 54.02108 | -16.40597 | 41135 ft | 535 kts | 92° |
| 2026-05-05 04:19 | 54.01990 | -16.28024 | 41128 ft | 534 kts | 94° |
| 2026-05-05 04:20 | 54.01854 | -16.15328 | 41129 ft | 534 kts | 94° |
| 2026-05-05 04:20 | 54.01707 | -16.02760 | 41130 ft | 534 kts | 94° |
| 2026-05-05 04:21 | 54.01546 | -15.90140 | 41131 ft | 534 kts | 94° |
| 2026-05-05 04:21 | 54.01370 | -15.77502 | 41132 ft | 534 kts | 94° |
| 2026-05-05 04:22 | 54.01183 | -15.64873 | 41133 ft | 535 kts | 94° |
| 2026-05-05 04:22 | 54.00983 | -15.52222 | 41134 ft | 534 kts | 94° |
| 2026-05-05 04:23 | 54.00770 | -15.39662 | 41134 ft | 534 kts | 94° |
| 2026-05-05 04:23 | 54.00542 | -15.27007 | 41129 ft | 534 kts | 94° |
| 2026-05-05 04:24 | 54.00303 | -15.14456 | 41130 ft | 534 kts | 94° |
| 2026-05-05 04:25 | 54.00051 | -14.95398 | 41134 ft | 540 kts | 92° |
| 2026-05-05 04:25 | 54.00083 | -14.82689 | 41134 ft | 542 kts | 93° |
| 2026-05-05 04:26 | 54.00102 | -14.69843 | 41134 ft | 542 kts | 93° |
| 2026-05-05 04:26 | 54.00115 | -14.57089 | 41135 ft | 542 kts | 93° |
| 2026-05-05 04:27 | 54.00114 | -14.44297 | 41139 ft | 541 kts | 93° |
| 2026-05-05 04:27 | 54.00102 | -14.31545 | 41133 ft | 540 kts | 94° |
| 2026-05-05 04:28 | 54.00075 | -14.18712 | 41130 ft | 541 kts | 94° |
| 2026-05-05 04:28 | 54.00035 | -14.05979 | 41130 ft | 540 kts | 94° |
| 2026-05-05 04:29 | 53.99828 | -13.93194 | 41132 ft | 539 kts | 96° |
| 2026-05-05 04:29 | 53.99498 | -13.80472 | 41134 ft | 540 kts | 96° |
| 2026-05-05 04:30 | 53.99151 | -13.67715 | 41133 ft | 539 kts | 96° |
| 2026-05-05 04:30 | 53.98792 | -13.55104 | 41135 ft | 539 kts | 96° |
| 2026-05-05 04:31 | 53.98415 | -13.42396 | 41136 ft | 539 kts | 96° |
| 2026-05-05 04:31 | 53.98027 | -13.29642 | 41128 ft | 539 kts | 97° |
| 2026-05-05 04:32 | 53.97623 | -13.16939 | 41129 ft | 538 kts | 97° |
| 2026-05-05 04:32 | 53.97213 | -13.04260 | 41136 ft | 541 kts | 97° |
| 2026-05-05 04:33 | 53.96780 | -12.91450 | 41133 ft | 543 kts | 98° |
| 2026-05-05 04:33 | 53.96329 | -12.78659 | 41133 ft | 543 kts | 98° |
| 2026-05-05 04:34 | 53.95868 | -12.65898 | 41137 ft | 544 kts | 98° |
| 2026-05-05 04:34 | 53.95397 | -12.53117 | 41135 ft | 543 kts | 98° |
| 2026-05-05 04:35 | 53.94908 | -12.40323 | 41137 ft | 543 kts | 98° |
| 2026-05-05 04:35 | 53.94409 | -12.27553 | 41128 ft | 542 kts | 98° |
| 2026-05-05 04:36 | 53.93893 | -12.14742 | 41131 ft | 542 kts | 99° |
| 2026-05-05 04:36 | 53.93367 | -12.02000 | 41129 ft | 542 kts | 98° |
| 2026-05-05 04:37 | 53.92826 | -11.89277 | 41129 ft | 543 kts | 98° |
| 2026-05-05 04:37 | 53.92269 | -11.76454 | 41132 ft | 543 kts | 98° |
| 2026-05-05 04:38 | 53.91703 | -11.63743 | 41138 ft | 543 kts | 98° |
| 2026-05-05 04:38 | 53.91121 | -11.50952 | 41139 ft | 542 kts | 98° |
| 2026-05-05 04:39 | 53.90526 | -11.38201 | 41137 ft | 542 kts | 99° |
| 2026-05-05 04:39 | 53.89919 | -11.25476 | 41127 ft | 542 kts | 99° |
| 2026-05-05 04:40 | 53.89296 | -11.12708 | 41130 ft | 541 kts | 99° |
| 2026-05-05 04:40 | 53.88663 | -11.00050 | 41128 ft | 544 kts | 99° |
| 2026-05-05 04:41 | 53.88015 | -10.87161 | 41132 ft | 555 kts | 101° |
| 2026-05-05 04:41 | 53.87323 | -10.73966 | 41143 ft | 566 kts | 101° |
| 2026-05-05 04:42 | 53.86614 | -10.60665 | 41135 ft | 563 kts | 101° |
| 2026-05-05 04:42 | 53.85903 | -10.47559 | 41142 ft | 560 kts | 101° |
| 2026-05-05 04:43 | 53.85173 | -10.34424 | 41143 ft | 561 kts | 102° |
| 2026-05-05 04:43 | 53.84425 | -10.21212 | 41129 ft | 561 kts | 102° |
| 2026-05-05 04:44 | 53.83673 | -10.08109 | 41129 ft | 560 kts | 102° |
| 2026-05-05 04:44 | 53.82894 | -9.94889 | 41132 ft | 560 kts | 102° |
| 2026-05-05 04:45 | 53.82106 | -9.81695 | 41130 ft | 560 kts | 102° |
| 2026-05-05 04:45 | 53.81301 | -9.68568 | 41137 ft | 562 kts | 102° |
| 2026-05-05 04:46 | 53.80485 | -9.55388 | 41134 ft | 560 kts | 102° |
| 2026-05-05 04:46 | 53.79653 | -9.42254 | 41142 ft | 562 kts | 102° |
| 2026-05-05 04:47 | 53.78810 | -9.29106 | 41127 ft | 560 kts | 103° |
| 2026-05-05 04:47 | 53.77950 | -9.16007 | 41129 ft | 561 kts | 103° |
| 2026-05-05 04:48 | 53.77081 | -9.02898 | 41125 ft | 564 kts | 103° |
| 2026-05-05 04:48 | 53.76189 | -8.89640 | 41134 ft | 569 kts | 104° |
| 2026-05-05 04:49 | 53.75265 | -8.76307 | 41135 ft | 570 kts | 104° |
| 2026-05-05 04:49 | 53.74336 | -8.63078 | 41138 ft | 570 kts | 104° |
| 2026-05-05 04:50 | 53.73392 | -8.49774 | 41138 ft | 569 kts | 104° |
| 2026-05-05 04:50 | 53.72433 | -8.36516 | 41139 ft | 569 kts | 104° |
| 2026-05-05 04:51 | 53.71453 | -8.23164 | 41128 ft | 568 kts | 105° |
| 2026-05-05 04:51 | 53.70467 | -8.09934 | 41128 ft | 568 kts | 105° |
| 2026-05-05 04:52 | 53.69467 | -7.96738 | 41129 ft | 568 kts | 105° |
| 2026-05-05 04:52 | 53.68451 | -7.83493 | 41120 ft | 569 kts | 105° |
| 2026-05-05 04:53 | 53.67425 | -7.70347 | 41092 ft | 568 kts | 104° |
| 2026-05-05 04:53 | 53.66378 | -7.57100 | 41078 ft | 569 kts | 105° |
| 2026-05-05 04:54 | 53.65314 | -7.43860 | 41083 ft | 569 kts | 105° |
| 2026-05-05 04:54 | 53.64248 | -7.30709 | 41071 ft | 567 kts | 105° |
| 2026-05-05 04:55 | 53.63166 | -7.17588 | 41072 ft | 567 kts | 106° |
| 2026-05-05 04:55 | 53.62048 | -7.04317 | 41076 ft | 575 kts | 105° |
| 2026-05-05 04:56 | 53.60915 | -6.90965 | 41078 ft | 581 kts | 105° |
| 2026-05-05 04:56 | 53.59767 | -6.77551 | 41077 ft | 579 kts | 105° |
| 2026-05-05 04:57 | 53.58594 | -6.64079 | 41081 ft | 578 kts | 105° |
| 2026-05-05 04:57 | 53.57426 | -6.50815 | 41082 ft | 576 kts | 105° |
| 2026-05-05 04:58 | 53.56227 | -6.37457 | 41086 ft | 578 kts | 105° |
| 2026-05-05 04:58 | 53.55020 | -6.24107 | 41070 ft | 576 kts | 107° |
| 2026-05-05 04:59 | 53.53796 | -6.10775 | 41073 ft | 575 kts | 107° |
| 2026-05-05 04:59 | 53.52555 | -5.97462 | 41075 ft | 576 kts | 107° |
| 2026-05-05 05:00 | 53.51300 | -5.84115 | 41077 ft | 576 kts | 107° |
| 2026-05-05 05:00 | 53.50038 | -5.70862 | 41078 ft | 576 kts | 107° |
| 2026-05-05 05:01 | 53.48754 | -5.57559 | 41080 ft | 577 kts | 107° |
| 2026-05-05 05:01 | 53.47850 | -5.44044 | 41098 ft | 585 kts | 98° |
| 2026-05-05 05:02 | 53.47474 | -5.30462 | 41066 ft | 584 kts | 99° |
| 2026-05-05 05:02 | 53.47075 | -5.16807 | 41067 ft | 584 kts | 99° |
| 2026-05-05 05:03 | 53.46657 | -5.03306 | 41073 ft | 584 kts | 99° |
| 2026-05-05 05:03 | 53.46217 | -4.89701 | 41074 ft | 587 kts | 99° |
| 2026-05-05 05:04 | 53.45763 | -4.76007 | 41078 ft | 590 kts | 99° |
| 2026-05-05 05:04 | 53.45294 | -4.62168 | 41079 ft | 589 kts | 99° |
| 2026-05-05 05:05 | 53.44815 | -4.48532 | 41081 ft | 589 kts | 99° |
| 2026-05-05 05:05 | 53.44319 | -4.34899 | 41083 ft | 589 kts | 100° |
| 2026-05-05 05:06 | 53.43804 | -4.21153 | 41069 ft | 588 kts | 100° |
| 2026-05-05 05:06 | 53.43273 | -4.07480 | 41071 ft | 589 kts | 100° |
| 2026-05-05 05:07 | 53.42726 | -3.93793 | 41073 ft | 589 kts | 100° |
| 2026-05-05 05:07 | 53.42166 | -3.80146 | 41075 ft | 589 kts | 100° |
| 2026-05-05 05:08 | 53.41588 | -3.66430 | 41062 ft | 589 kts | 100° |
| 2026-05-05 05:08 | 53.40998 | -3.52815 | 41053 ft | 589 kts | 100° |
| 2026-05-05 05:09 | 53.40389 | -3.39113 | 41056 ft | 589 kts | 100° |
| 2026-05-05 05:09 | 53.39766 | -3.25420 | 41040 ft | 588 kts | 101° |
| 2026-05-05 05:10 | 53.39152 | -3.11744 | 41044 ft | 589 kts | 99° |
| 2026-05-05 05:10 | 53.38630 | -2.97976 | 41045 ft | 588 kts | 99° |
| 2026-05-05 05:11 | 53.38107 | -2.84368 | 41047 ft | 587 kts | 99° |
| 2026-05-05 05:11 | 53.37571 | -2.70694 | 41050 ft | 587 kts | 99° |
| 2026-05-05 05:12 | 53.37020 | -2.57057 | 41052 ft | 588 kts | 99° |
| 2026-05-05 05:12 | 53.36457 | -2.43452 | 41054 ft | 585 kts | 99° |
| 2026-05-05 05:13 | 53.35863 | -2.29828 | 41039 ft | 584 kts | 102° |
| 2026-05-05 05:13 | 53.34687 | -2.16526 | 41040 ft | 579 kts | 106° |
| 2026-05-05 05:14 | 53.33351 | -2.03251 | 41044 ft | 579 kts | 107° |
| 2026-05-05 05:14 | 53.31982 | -1.90006 | 41046 ft | 579 kts | 107° |
| 2026-05-05 05:15 | 53.30595 | -1.76792 | 41035 ft | 579 kts | 107° |
| 2026-05-05 05:15 | 53.29183 | -1.63515 | 41023 ft | 579 kts | 107° |
| 2026-05-05 05:16 | 53.27758 | -1.50265 | 41025 ft | 579 kts | 107° |
| 2026-05-05 05:16 | 53.26325 | -1.37073 | 41027 ft | 579 kts | 107° |
| 2026-05-05 05:17 | 53.24882 | -1.23910 | 41013 ft | 578 kts | 108° |
| 2026-05-05 05:17 | 53.23415 | -1.10731 | 41015 ft | 579 kts | 108° |
| 2026-05-05 05:18 | 53.21925 | -0.97488 | 41017 ft | 581 kts | 107° |
| 2026-05-05 05:18 | 53.20423 | -0.84240 | 41019 ft | 582 kts | 107° |
| 2026-05-05 05:19 | 53.18912 | -0.71037 | 41021 ft | 582 kts | 107° |
| 2026-05-05 05:19 | 53.17379 | -0.57786 | 41023 ft | 582 kts | 107° |
| 2026-05-05 05:20 | 53.15836 | -0.44603 | 41025 ft | 582 kts | 107° |
| 2026-05-05 05:20 | 53.14270 | -0.31339 | 41016 ft | 581 kts | 108° |
| 2026-05-05 05:21 | 53.12704 | -0.18218 | 41012 ft | 581 kts | 108° |
| 2026-05-05 05:21 | 53.11111 | -0.05022 | 41014 ft | 582 kts | 108° |
| 2026-05-05 05:22 | 53.09509 | 0.08122 | 41017 ft | 583 kts | 108° |
| 2026-05-05 05:22 | 53.07881 | 0.21362 | 41019 ft | 585 kts | 108° |
| 2026-05-05 05:23 | 53.06234 | 0.34628 | 41021 ft | 587 kts | 108° |
| 2026-05-05 05:23 | 53.04573 | 0.47874 | 41024 ft | 588 kts | 108° |
| 2026-05-05 05:24 | 53.02887 | 0.61196 | 41026 ft | 590 kts | 108° |
| 2026-05-05 05:24 | 53.01190 | 0.74489 | 41010 ft | 590 kts | 109° |
| 2026-05-05 05:25 | 52.99458 | 0.87896 | 41013 ft | 592 kts | 109° |
| 2026-05-05 05:25 | 52.97755 | 1.01216 | 41016 ft | 595 kts | 107° |
| 2026-05-05 05:26 | 52.96189 | 1.14704 | 41018 ft | 596 kts | 106° |
| 2026-05-05 05:26 | 52.94620 | 1.28220 | 41020 ft | 596 kts | 106° |
| 2026-05-05 05:27 | 52.93036 | 1.41732 | 41023 ft | 596 kts | 106° |
| 2026-05-05 05:27 | 52.90652 | 1.61814 | 41026 ft | 594 kts | 107° |
| 2026-05-05 05:28 | 52.89041 | 1.75200 | 41018 ft | 593 kts | 107° |
| 2026-05-05 05:28 | 52.87406 | 1.88626 | 41020 ft | 593 kts | 107° |
| 2026-05-05 05:29 | 52.85769 | 2.01949 | 41022 ft | 593 kts | 107° |
| 2026-05-05 05:29 | 52.84113 | 2.15295 | 41025 ft | 593 kts | 107° |
| 2026-05-05 05:30 | 52.82439 | 2.28657 | 41027 ft | 593 kts | 107° |
| 2026-05-05 05:30 | 52.80753 | 2.41990 | 41029 ft | 594 kts | 107° |
| 2026-05-05 05:31 | 52.79054 | 2.55283 | 41032 ft | 594 kts | 107° |
| 2026-05-05 05:31 | 52.77340 | 2.68598 | 41019 ft | 593 kts | 108° |
| 2026-05-05 05:32 | 52.75600 | 2.81959 | 40985 ft | 592 kts | 108° |
| 2026-05-05 05:32 | 52.73859 | 2.95173 | 40963 ft | 594 kts | 108° |
| 2026-05-05 05:33 | 52.72157 | 3.08633 | 40958 ft | 599 kts | 106° |
| 2026-05-05 05:33 | 52.70497 | 3.22050 | 40954 ft | 600 kts | 105° |
| 2026-05-05 05:34 | 52.68819 | 3.35514 | 40948 ft | 599 kts | 105° |
| 2026-05-05 05:34 | 52.67125 | 3.48938 | 40950 ft | 599 kts | 105° |
| 2026-05-05 05:35 | 52.65478 | 3.61848 | 40953 ft | 599 kts | 105° |
| 2026-05-05 05:35 | 52.63753 | 3.75265 | 40935 ft | 598 kts | 107° |
| 2026-05-05 05:36 | 52.62016 | 3.88607 | 40938 ft | 599 kts | 107° |
| 2026-05-05 05:36 | 52.60265 | 4.01951 | 40952 ft | 599 kts | 107° |
| 2026-05-05 05:37 | 52.58490 | 4.15347 | 40961 ft | 599 kts | 107° |
| 2026-05-05 05:37 | 52.56699 | 4.28742 | 40967 ft | 599 kts | 107° |
| 2026-05-05 05:38 | 52.54895 | 4.42104 | 40973 ft | 599 kts | 107° |
| 2026-05-05 05:38 | 52.53080 | 4.55434 | 40976 ft | 599 kts | 107° |
| 2026-05-05 05:39 | 52.51250 | 4.68764 | 40964 ft | 599 kts | 107° |
| 2026-05-05 05:39 | 52.49410 | 4.82036 | 40962 ft | 598 kts | 107° |
| 2026-05-05 05:40 | 52.47543 | 4.95331 | 40964 ft | 594 kts | 107° |
| 2026-05-05 05:40 | 52.45691 | 5.08449 | 40965 ft | 591 kts | 107° |
| 2026-05-05 05:41 | 52.43827 | 5.21573 | 40969 ft | 591 kts | 107° |
| 2026-05-05 05:41 | 52.41954 | 5.34630 | 40971 ft | 591 kts | 107° |
| 2026-05-05 05:42 | 52.40062 | 5.47729 | 40973 ft | 591 kts | 107° |
| 2026-05-05 05:42 | 52.38158 | 5.60756 | 40975 ft | 590 kts | 107° |
| 2026-05-05 05:43 | 52.36236 | 5.73814 | 40960 ft | 589 kts | 108° |
| 2026-05-05 05:43 | 52.34309 | 5.86773 | 40957 ft | 590 kts | 108° |
| 2026-05-05 05:44 | 52.32350 | 5.99858 | 40944 ft | 590 kts | 108° |
| 2026-05-05 05:44 | 52.30399 | 6.12783 | 40940 ft | 590 kts | 108° |
| 2026-05-05 05:45 | 52.28420 | 6.25785 | 40942 ft | 590 kts | 108° |
| 2026-05-05 05:45 | 52.26432 | 6.38743 | 40944 ft | 590 kts | 108° |
| 2026-05-05 05:46 | 52.24421 | 6.51752 | 40947 ft | 590 kts | 108° |
| 2026-05-05 05:46 | 52.22409 | 6.64656 | 40947 ft | 590 kts | 108° |
| 2026-05-05 05:47 | 52.20374 | 6.77619 | 40927 ft | 589 kts | 109° |
| 2026-05-05 05:47 | 52.18323 | 6.90564 | 40946 ft | 589 kts | 109° |
| 2026-05-05 05:48 | 52.16256 | 7.03486 | 40971 ft | 590 kts | 108° |
| 2026-05-05 05:48 | 52.15562 | 7.10042 | 40981 ft | 593 kts | 94° |
| 2026-05-05 05:48 | 52.15519 | 7.16752 | 41017 ft | 592 kts | 87° |
| 2026-05-05 05:49 | 52.15968 | 7.30114 | 41004 ft | 590 kts | 84° |
| 2026-05-05 05:49 | 52.16543 | 7.43394 | 41007 ft | 590 kts | 83° |
| 2026-05-05 05:50 | 52.17121 | 7.56553 | 41009 ft | 590 kts | 83° |
| 2026-05-05 05:50 | 52.17697 | 7.69829 | 40995 ft | 590 kts | 84° |
| 2026-05-05 05:51 | 52.18256 | 7.83103 | 40997 ft | 590 kts | 84° |
| 2026-05-05 05:51 | 52.18805 | 7.96460 | 40996 ft | 590 kts | 84° |
| 2026-05-05 05:52 | 52.19336 | 8.09746 | 40966 ft | 590 kts | 84° |
| 2026-05-05 05:52 | 52.19858 | 8.23191 | 40943 ft | 590 kts | 84° |
| 2026-05-05 05:53 | 52.20361 | 8.36521 | 40945 ft | 590 kts | 84° |
| 2026-05-05 05:53 | 52.20850 | 8.49892 | 40942 ft | 590 kts | 84° |
| 2026-05-05 05:54 | 52.21324 | 8.63264 | 40934 ft | 590 kts | 84° |
| 2026-05-05 05:54 | 52.21783 | 8.76590 | 40915 ft | 590 kts | 85° |
| 2026-05-05 05:55 | 52.22226 | 8.90002 | 40911 ft | 590 kts | 85° |
| 2026-05-05 05:55 | 52.22642 | 9.03313 | 40912 ft | 586 kts | 84° |
| 2026-05-05 05:56 | 52.23049 | 9.16558 | 40914 ft | 582 kts | 84° |
| 2026-05-05 05:56 | 52.23634 | 9.29727 | 40921 ft | 579 kts | 77° |
| 2026-05-05 05:57 | 52.24820 | 9.42853 | 40933 ft | 580 kts | 77° |
| 2026-05-05 05:57 | 52.25988 | 9.55858 | 40981 ft | 580 kts | 77° |
| 2026-05-05 05:58 | 52.27149 | 9.68945 | 40996 ft | 581 kts | 78° |
| 2026-05-05 05:58 | 52.28286 | 9.81947 | 40997 ft | 581 kts | 78° |
| 2026-05-05 05:59 | 52.29421 | 9.95095 | 40971 ft | 581 kts | 78° |
| 2026-05-05 05:59 | 52.30529 | 10.08101 | 40926 ft | 581 kts | 78° |
| 2026-05-05 06:00 | 52.31630 | 10.21210 | 40951 ft | 580 kts | 78° |
| 2026-05-05 06:00 | 52.32718 | 10.34330 | 41000 ft | 581 kts | 78° |
| 2026-05-05 06:01 | 52.33777 | 10.47301 | 40543 ft | 570 kts | 78° |
| 2026-05-05 06:01 | 52.34295 | 10.53719 | 40188 ft | 561 kts | 78° |
| 2026-05-05 06:01 | 52.34795 | 10.59954 | 39847 ft | 557 kts | 78° |
| 2026-05-05 06:02 | 52.35300 | 10.66260 | 39523 ft | 560 kts | 79° |
| 2026-05-05 06:02 | 52.35802 | 10.72541 | 39177 ft | 562 kts | 79° |
| 2026-05-05 06:02 | 52.36215 | 10.78955 | 38819 ft | 565 kts | 84° |
| 2026-05-05 06:02 | 52.36405 | 10.85399 | 38478 ft | 565 kts | 84° |
| 2026-05-05 06:03 | 52.36550 | 10.91785 | 38131 ft | 563 kts | 84° |
| 2026-05-05 06:03 | 52.36679 | 10.98130 | 37789 ft | 561 kts | 83° |
| 2026-05-05 06:03 | 52.36800 | 11.04471 | 37447 ft | 559 kts | 83° |
| 2026-05-05 06:03 | 52.36923 | 11.10858 | 37103 ft | 558 kts | 83° |
| 2026-05-05 06:04 | 52.37042 | 11.17151 | 36983 ft | 556 kts | 83° |
| 2026-05-05 06:04 | 52.37155 | 11.23533 | 36949 ft | 558 kts | 83° |
| 2026-05-05 06:04 | 52.37365 | 11.36202 | 36920 ft | 560 kts | 83° |
| 2026-05-05 06:05 | 52.37558 | 11.48988 | 36920 ft | 560 kts | 83° |
| 2026-05-05 06:05 | 52.37734 | 11.61692 | 36922 ft | 560 kts | 83° |
| 2026-05-05 06:06 | 52.37900 | 11.74460 | 36910 ft | 561 kts | 84° |
| 2026-05-05 06:06 | 52.38050 | 11.87312 | 36911 ft | 561 kts | 84° |
| 2026-05-05 06:07 | 52.38185 | 12.00058 | 36912 ft | 561 kts | 84° |
| 2026-05-05 06:07 | 52.38308 | 12.12854 | 36915 ft | 561 kts | 84° |
| 2026-05-05 06:08 | 52.38416 | 12.25615 | 36916 ft | 561 kts | 84° |
| 2026-05-05 06:08 | 52.38511 | 12.38443 | 36906 ft | 561 kts | 84° |
| 2026-05-05 06:09 | 52.38593 | 12.51176 | 36894 ft | 561 kts | 84° |
| 2026-05-05 06:09 | 52.38659 | 12.63927 | 36900 ft | 561 kts | 84° |
| 2026-05-05 06:10 | 52.38715 | 12.76714 | 36895 ft | 561 kts | 84° |
| 2026-05-05 06:10 | 52.38753 | 12.89432 | 36904 ft | 561 kts | 84° |
| 2026-05-05 06:11 | 52.38775 | 13.02233 | 36914 ft | 559 kts | 84° |
| 2026-05-05 06:11 | 52.38775 | 13.14812 | 36914 ft | 550 kts | 83° |
| 2026-05-05 06:12 | 52.38779 | 13.27250 | 36915 ft | 546 kts | 83° |
| 2026-05-05 06:12 | 52.38773 | 13.39689 | 36919 ft | 547 kts | 83° |
| 2026-05-05 06:13 | 52.38748 | 13.52077 | 36920 ft | 547 kts | 83° |
| 2026-05-05 06:13 | 52.38710 | 13.64555 | 36922 ft | 547 kts | 83° |
| 2026-05-05 06:14 | 52.38658 | 13.76983 | 36911 ft | 549 kts | 84° |
| 2026-05-05 06:14 | 52.38590 | 13.89482 | 36911 ft | 548 kts | 84° |
| 2026-05-05 06:15 | 52.38510 | 14.01933 | 36913 ft | 548 kts | 84° |
| 2026-05-05 06:15 | 52.38418 | 14.14381 | 36915 ft | 548 kts | 84° |
| 2026-05-05 06:16 | 52.38310 | 14.26882 | 36916 ft | 547 kts | 84° |
| 2026-05-05 06:16 | 52.38192 | 14.39331 | 36918 ft | 548 kts | 83° |
| 2026-05-05 06:17 | 52.38061 | 14.51743 | 36923 ft | 548 kts | 84° |
| 2026-05-05 06:17 | 52.37239 | 14.64289 | 36930 ft | 556 kts | 92° |
| 2026-05-05 06:18 | 52.35999 | 14.76727 | 36905 ft | 557 kts | 95° |
| 2026-05-05 06:18 | 52.34665 | 14.89210 | 36888 ft | 557 kts | 95° |
| 2026-05-05 06:19 | 52.33500 | 14.99967 | 36884 ft | 540 kts | 96° |
| 2026-05-05 06:19 | 52.32853 | 15.05863 | 36885 ft | 529 kts | 96° |
| 2026-05-05 06:19 | 52.32205 | 15.11725 | 36886 ft | 519 kts | 97° |
| 2026-05-05 06:20 | 52.30904 | 15.23321 | 36902 ft | 525 kts | 97° |
| 2026-05-05 06:20 | 52.29564 | 15.35160 | 36890 ft | 533 kts | 97° |
| 2026-05-05 06:21 | 52.28209 | 15.47031 | 36888 ft | 531 kts | 97° |
| 2026-05-05 06:21 | 52.26852 | 15.58821 | 36891 ft | 530 kts | 97° |
| 2026-05-05 06:22 | 52.25476 | 15.70681 | 36884 ft | 531 kts | 98° |
| 2026-05-05 06:22 | 52.24091 | 15.82492 | 36885 ft | 531 kts | 98° |
| 2026-05-05 06:23 | 52.22691 | 15.94302 | 36886 ft | 531 kts | 98° |
| 2026-05-05 06:23 | 52.21266 | 16.06211 | 36887 ft | 531 kts | 98° |
| 2026-05-05 06:24 | 52.19841 | 16.18014 | 36890 ft | 531 kts | 98° |
| 2026-05-05 06:24 | 52.18399 | 16.29851 | 36893 ft | 531 kts | 98° |
| 2026-05-05 06:25 | 52.16955 | 16.41596 | 36899 ft | 531 kts | 98° |
| 2026-05-05 06:25 | 52.15487 | 16.53438 | 36912 ft | 531 kts | 98° |
| 2026-05-05 06:26 | 52.14021 | 16.65176 | 36919 ft | 530 kts | 98° |
| 2026-05-05 06:26 | 52.13650 | 16.71191 | 36909 ft | 524 kts | 85° |
| 2026-05-05 06:26 | 52.13895 | 16.77046 | 36929 ft | 521 kts | 80° |
| 2026-05-05 06:27 | 52.15330 | 16.94408 | 36913 ft | 511 kts | 78° |
| 2026-05-05 06:28 | 52.16409 | 17.05744 | 36913 ft | 504 kts | 78° |
| 2026-05-05 06:28 | 52.17493 | 17.17048 | 36915 ft | 504 kts | 78° |
| 2026-05-05 06:29 | 52.18579 | 17.28337 | 36914 ft | 504 kts | 78° |
| 2026-05-05 06:29 | 52.19649 | 17.39517 | 36915 ft | 504 kts | 78° |
| 2026-05-05 06:30 | 52.20719 | 17.50836 | 36915 ft | 504 kts | 78° |
| 2026-05-05 06:30 | 52.21778 | 17.62177 | 36916 ft | 504 kts | 78° |
| 2026-05-05 06:31 | 52.22817 | 17.73426 | 36912 ft | 505 kts | 79° |
| 2026-05-05 06:31 | 52.23859 | 17.84806 | 36912 ft | 504 kts | 78° |
| 2026-05-05 06:31 | 52.24368 | 17.90411 | 36548 ft | 498 kts | 78° |
| 2026-05-05 06:32 | 52.24870 | 17.95973 | 36155 ft | 487 kts | 78° |
| 2026-05-05 06:32 | 52.25352 | 18.01351 | 35766 ft | 478 kts | 78° |
| 2026-05-05 06:32 | 52.25834 | 18.06730 | 35392 ft | 478 kts | 78° |
| 2026-05-05 06:32 | 52.26317 | 18.12134 | 35028 ft | 481 kts | 78° |
| 2026-05-05 06:33 | 52.26796 | 18.17522 | 34666 ft | 483 kts | 78° |
| 2026-05-05 06:33 | 52.27275 | 18.22946 | 34243 ft | 485 kts | 78° |
| 2026-05-05 06:33 | 52.27749 | 18.28348 | 33749 ft | 485 kts | 78° |
| 2026-05-05 06:33 | 52.28229 | 18.33840 | 33255 ft | 486 kts | 79° |
| 2026-05-05 06:34 | 52.28700 | 18.39250 | 32770 ft | 487 kts | 79° |
| 2026-05-05 06:34 | 52.29171 | 18.44708 | 32283 ft | 489 kts | 79° |
| 2026-05-05 06:34 | 52.29644 | 18.50214 | 31793 ft | 490 kts | 79° |
| 2026-05-05 06:34 | 52.30113 | 18.55710 | 31306 ft | 492 kts | 79° |
| 2026-05-05 06:35 | 52.30588 | 18.61305 | 30813 ft | 494 kts | 79° |
| 2026-05-05 06:35 | 52.31057 | 18.66875 | 30321 ft | 495 kts | 80° |
| 2026-05-05 06:35 | 52.31527 | 18.72484 | 29822 ft | 497 kts | 81° |
| 2026-05-05 06:35 | 52.31991 | 18.78053 | 29329 ft | 498 kts | 81° |
| 2026-05-05 06:36 | 52.32457 | 18.83683 | 28832 ft | 499 kts | 81° |
| 2026-05-05 06:36 | 52.32921 | 18.89309 | 28337 ft | 501 kts | 81° |
| 2026-05-05 06:36 | 52.33349 | 18.94950 | 27839 ft | 502 kts | 83° |
| 2026-05-05 06:36 | 52.33681 | 19.00390 | 27363 ft | 502 kts | 81° |
| 2026-05-05 06:37 | 52.34196 | 19.05949 | 26878 ft | 501 kts | 81° |
| 2026-05-05 06:37 | 52.34673 | 19.11544 | 26382 ft | 498 kts | 80° |
| 2026-05-05 06:37 | 52.35146 | 19.17158 | 25878 ft | 493 kts | 81° |
| 2026-05-05 06:37 | 52.35604 | 19.22691 | 25375 ft | 488 kts | 81° |
| 2026-05-05 06:38 | 52.36064 | 19.28133 | 24875 ft | 485 kts | 78° |
| 2026-05-05 06:38 | 52.37003 | 19.33397 | 24360 ft | 478 kts | 65° |
| 2026-05-05 06:38 | 52.38057 | 19.38561 | 23844 ft | 477 kts | 76° |
| 2026-05-05 06:38 | 52.38731 | 19.43836 | 23349 ft | 465 kts | 75° |
| 2026-05-05 06:39 | 52.39422 | 19.48937 | 22836 ft | 454 kts | 76° |
| 2026-05-05 06:39 | 52.40111 | 19.53970 | 22322 ft | 444 kts | 75° |
| 2026-05-05 06:39 | 52.40790 | 19.58877 | 21809 ft | 435 kts | 75° |
| 2026-05-05 06:39 | 52.41461 | 19.63666 | 21300 ft | 426 kts | 75° |
| 2026-05-05 06:40 | 52.42124 | 19.68383 | 20786 ft | 418 kts | 76° |
| 2026-05-05 06:40 | 52.42781 | 19.73053 | 20267 ft | 411 kts | 76° |
| 2026-05-05 06:40 | 52.43411 | 19.77532 | 19763 ft | 404 kts | 76° |
| 2026-05-05 06:40 | 52.44044 | 19.82037 | 19248 ft | 398 kts | 76° |
| 2026-05-05 06:41 | 52.44652 | 19.86372 | 18923 ft | 386 kts | 77° |
| 2026-05-05 06:41 | 52.45242 | 19.90594 | 18896 ft | 367 kts | 77° |
| 2026-05-05 06:41 | 52.45802 | 19.94617 | 18891 ft | 350 kts | 77° |
| 2026-05-05 06:41 | 52.46344 | 19.98508 | 18909 ft | 349 kts | 76° |
| 2026-05-05 06:42 | 52.46887 | 20.02415 | 18912 ft | 350 kts | 76° |
| 2026-05-05 06:42 | 52.47430 | 20.06328 | 18823 ft | 353 kts | 77° |
| 2026-05-05 06:42 | 52.47977 | 20.10272 | 18415 ft | 350 kts | 77° |
| 2026-05-05 06:42 | 52.48511 | 20.14143 | 18038 ft | 346 kts | 77° |
| 2026-05-05 06:43 | 52.49048 | 20.18037 | 17655 ft | 343 kts | 77° |
| 2026-05-05 06:43 | 52.49576 | 20.21888 | 17275 ft | 341 kts | 77° |
| 2026-05-05 06:43 | 52.50096 | 20.25681 | 16900 ft | 339 kts | 77° |
| 2026-05-05 06:43 | 52.50564 | 20.29489 | 16514 ft | 337 kts | 84° |
| 2026-05-05 06:44 | 52.50446 | 20.33290 | 16138 ft | 332 kts | 104° |
| 2026-05-05 06:44 | 52.49661 | 20.36881 | 15780 ft | 328 kts | 116° |
| 2026-05-05 06:44 | 52.48725 | 20.40278 | 15411 ft | 326 kts | 116° |
| 2026-05-05 06:44 | 52.47770 | 20.43640 | 15035 ft | 324 kts | 118° |
| 2026-05-05 06:45 | 52.46742 | 20.46920 | 14659 ft | 321 kts | 120° |
| 2026-05-05 06:45 | 52.45675 | 20.50141 | 14282 ft | 318 kts | 121° |
| 2026-05-05 06:45 | 52.44593 | 20.53316 | 13906 ft | 316 kts | 121° |
| 2026-05-05 06:45 | 52.43512 | 20.56444 | 13530 ft | 314 kts | 121° |
| 2026-05-05 06:46 | 52.42448 | 20.59502 | 13160 ft | 311 kts | 121° |
| 2026-05-05 06:46 | 52.41370 | 20.62585 | 12784 ft | 309 kts | 121° |
| 2026-05-05 06:46 | 52.40300 | 20.65636 | 12409 ft | 307 kts | 122° |
| 2026-05-05 06:46 | 52.39238 | 20.68662 | 12052 ft | 304 kts | 122° |
| 2026-05-05 06:47 | 52.38178 | 20.71673 | 12008 ft | 299 kts | 122° |
| 2026-05-05 06:47 | 52.37159 | 20.74572 | 11982 ft | 287 kts | 122° |
| 2026-05-05 06:47 | 52.36164 | 20.77392 | 11996 ft | 286 kts | 122° |
| 2026-05-05 06:47 | 52.35166 | 20.80212 | 11998 ft | 287 kts | 122° |
| 2026-05-05 06:48 | 52.34155 | 20.83071 | 11998 ft | 287 kts | 122° |
| 2026-05-05 06:48 | 52.33154 | 20.85897 | 11997 ft | 287 kts | 122° |
| 2026-05-05 06:48 | 52.32156 | 20.88714 | 11755 ft | 285 kts | 122° |
| 2026-05-05 06:48 | 52.31171 | 20.91494 | 11493 ft | 278 kts | 122° |
| 2026-05-05 06:49 | 52.30197 | 20.94234 | 11228 ft | 272 kts | 122° |
| 2026-05-05 06:49 | 52.29258 | 20.96876 | 10967 ft | 266 kts | 122° |
| 2026-05-05 06:49 | 52.28339 | 20.99456 | 10707 ft | 260 kts | 122° |
| 2026-05-05 06:49 | 52.27261 | 21.01812 | 10436 ft | 254 kts | 141° |
| 2026-05-05 06:50 | 52.25829 | 21.03482 | 10102 ft | 254 kts | 149° |
| 2026-05-05 06:50 | 52.24307 | 21.05008 | 9596 ft | 256 kts | 151° |
| 2026-05-05 06:50 | 52.22802 | 21.06429 | 9077 ft | 249 kts | 152° |
| 2026-05-05 06:50 | 52.21310 | 21.07786 | 8565 ft | 243 kts | 152° |
| 2026-05-05 06:51 | 52.19847 | 21.09091 | 8053 ft | 237 kts | 152° |
| 2026-05-05 06:51 | 52.18401 | 21.10360 | 7540 ft | 233 kts | 152° |
| 2026-05-05 06:51 | 52.16993 | 21.11589 | 7034 ft | 229 kts | 152° |
| 2026-05-05 06:51 | 52.15599 | 21.12796 | 6555 ft | 224 kts | 152° |
| 2026-05-05 06:52 | 52.14254 | 21.13980 | 6100 ft | 216 kts | 151° |
| 2026-05-05 06:52 | 52.12951 | 21.15123 | 5671 ft | 211 kts | 151° |
| 2026-05-05 06:52 | 52.11665 | 21.16249 | 5258 ft | 209 kts | 151° |
| 2026-05-05 06:52 | 52.10390 | 21.17363 | 5012 ft | 208 kts | 150° |
| 2026-05-05 06:53 | 52.09105 | 21.18491 | 5005 ft | 208 kts | 151° |
| 2026-05-05 06:53 | 52.07834 | 21.19607 | 5000 ft | 209 kts | 151° |
| 2026-05-05 06:53 | 52.06537 | 21.20739 | 4998 ft | 210 kts | 151° |
| 2026-05-05 06:53 | 52.05238 | 21.21870 | 4998 ft | 210 kts | 151° |
| 2026-05-05 06:54 | 52.03955 | 21.22994 | 4998 ft | 210 kts | 151° |
| 2026-05-05 06:54 | 52.02669 | 21.24112 | 4998 ft | 210 kts | 151° |
| 2026-05-05 06:54 | 52.01387 | 21.25236 | 4998 ft | 210 kts | 151° |
| 2026-05-05 06:54 | 52.00087 | 21.26356 | 4997 ft | 210 kts | 151° |
| 2026-05-05 06:55 | 51.98783 | 21.27478 | 4998 ft | 210 kts | 151° |
| 2026-05-05 06:55 | 51.97474 | 21.28509 | 4976 ft | 211 kts | 159° |
| 2026-05-05 06:55 | 51.96019 | 21.28738 | 4969 ft | 211 kts | 183° |
| 2026-05-05 06:55 | 51.94619 | 21.27959 | 4968 ft | 212 kts | 207° |
| 2026-05-05 06:56 | 51.93541 | 21.26340 | 4971 ft | 215 kts | 231° |
| 2026-05-05 06:56 | 51.92798 | 21.24216 | 5009 ft | 216 kts | 239° |
| 2026-05-05 06:56 | 51.92343 | 21.21888 | 4964 ft | 219 kts | 262° |
| 2026-05-05 06:56 | 51.92511 | 21.19512 | 4937 ft | 200 kts | 285° |
| 2026-05-05 06:57 | 51.93227 | 21.17681 | 4897 ft | 192 kts | 312° |
| 2026-05-05 06:57 | 51.94291 | 21.16425 | 4582 ft | 184 kts | 329° |
| 2026-05-05 06:57 | 51.95370 | 21.15380 | 4267 ft | 174 kts | 331° |
| 2026-05-05 06:57 | 51.96392 | 21.14402 | 3957 ft | 167 kts | 331° |
| 2026-05-05 06:58 | 51.97386 | 21.13493 | 3676 ft | 164 kts | 331° |
| 2026-05-05 06:58 | 51.98384 | 21.12590 | 3402 ft | 163 kts | 331° |
| 2026-05-05 06:58 | 51.99380 | 21.11690 | 3124 ft | 161 kts | 332° |
| 2026-05-05 06:58 | 52.00349 | 21.10821 | 3002 ft | 160 kts | 332° |
| 2026-05-05 06:59 | 52.01332 | 21.09939 | 3003 ft | 160 kts | 332° |
| 2026-05-05 06:59 | 52.02328 | 21.09054 | 2999 ft | 161 kts | 333° |
| 2026-05-05 06:59 | 52.03271 | 21.08231 | 2968 ft | 151 kts | 334° |
| 2026-05-05 06:59 | 52.04242 | 21.07515 | 3007 ft | 151 kts | 338° |
| 2026-05-05 07:00 | 52.05205 | 21.06787 | 2988 ft | 155 kts | 336° |
| 2026-05-05 07:00 | 52.06179 | 21.05993 | 2992 ft | 157 kts | 334° |
| 2026-05-05 07:00 | 52.07130 | 21.05169 | 2779 ft | 156 kts | 333° |
| 2026-05-05 07:00 | 52.08098 | 21.04308 | 2303 ft | 161 kts | 333° |
| 2026-05-05 07:01 | 52.09034 | 21.03392 | 2032 ft | 154 kts | 329° |
| 2026-05-05 07:01 | 52.09929 | 21.02463 | 1767 ft | 154 kts | 329° |
| 2026-05-05 07:01 | 52.10875 | 21.01598 | 1554 ft | 155 kts | 335° |
| 2026-05-05 07:01 | 52.11843 | 21.00822 | 1336 ft | 155 kts | 336° |
| 2026-05-05 07:02 | 52.12805 | 21.00037 | 1045 ft | 155 kts | 333° |
| 2026-05-05 07:02 | 52.13735 | 20.99179 | 816 ft | 150 kts | 332° |
| 2026-05-05 07:02 | 52.14644 | 20.98394 | 603 ft | 148 kts | 335° |
| 2026-05-05 07:02 | 52.15554 | 20.97605 | 430 ft | 145 kts | 334° |
| 2026-05-05 07:03 | 52.16413 | 20.96851 | 371 ft | 128 kts | 333° |
| 2026-05-05 07:03 | 52.17045 | 20.96317 | 371 ft | 80 kts | 331° |
| 2026-05-05 07:03 | 52.17379 | 20.96014 | 371 ft | 23 kts | 332° |
| 2026-05-05 07:03 | 52.17520 | 20.96048 | 371 ft | 23 kts | 25° |
| 2026-05-05 07:04 | 52.17621 | 20.96148 | 371 ft | 15 kts | 63° |
| 2026-05-05 07:04 | 52.17558 | 20.96254 | 371 ft | 14 kts | 151° |
| 2026-05-05 07:04 | 52.17473 | 20.96331 | 371 ft | 13 kts | 151° |
| 2026-05-05 07:04 | 52.17442 | 20.96389 | 371 ft | 6 kts | 91° |
| 2026-05-05 07:05 | 52.17465 | 20.96498 | 371 ft | 13 kts | 68° |
| 2026-05-05 07:05 | 52.17444 | 20.96591 | 371 ft | 6 kts | 145° |
| 2026-05-05 07:05 | 52.17403 | 20.96628 | 371 ft | 6 kts | 150° |
| 2026-05-05 07:05 | 52.17364 | 20.96664 | 371 ft | 7 kts | 152° |
| 2026-05-05 07:06 | 52.17316 | 20.96706 | 371 ft | 7 kts | 152° |
| 2026-05-05 07:06 | 52.17299 | 20.96721 | 371 ft | 0 kts | 145° |
| 2026-05-05 07:06 | 52.17298 | 20.96734 | 371 ft | 1 kts | 89° |
| 2026-05-05 07:06 | 52.17310 | 20.96775 | 371 ft | 4 kts | 63° |
| 2026-05-05 07:07 | 52.17323 | 20.96817 | 371 ft | 3 kts | 63° |
| 2026-05-05 07:07 | 52.17329 | 20.96837 | 371 ft | 1 kts | 63° |
| 2026-05-05 07:07 | 52.17332 | 20.96844 | 371 ft | 0 kts | 63° |
| 2026-05-05 07:08 | 52.17332 | 20.96843 | 371 ft | 0 kts | 63° |